Flight Track Log - Related Links

Times and Time Zones

All times are in EDT time to prevent confusion due to time zone crossing. See the UAL139 flight status page for this flight to view local times or setup timezone preferences in your user account.

Time Position Orientation Groundspeed Altitude Reporting Facility
EDT Latitude Longitude Course Direction KTS MPH feet Rate Location/Type
Wed 02:44:03 PM 39.8410 -104.7310 180° South 200 230 5,400  Level FlightAware ADS-B
Wed 02:44:17 PM 39.8410 -104.7490 270° West 208 239 5,800 2,182 Climbing FlightAware ADS-B
Wed 02:44:25 PM 39.8420 -104.7590 277° West 207 238 6,200 1,875 Climbing FlightAware ADS-B
Wed 02:44:33 PM 39.8450 -104.7680 293° West 213 245 6,300 1,125 Climbing FlightAware ADS-B
Wed 02:44:41 PM 39.8490 -104.7770 300° West 220 253 6,500 1,071 Climbing FlightAware ADS-B
Wed 02:45:01 PM 39.8610 -104.8000 304° West 243 280 6,800 900 Climbing FlightAware ADS-B
Wed 02:45:21 PM 39.8740 -104.8270 302° West 266 306 7,100 1,091 Climbing FlightAware ADS-B
Wed 02:45:45 PM 39.8910 -104.8600 304° West 289 333 7,600 1,500 Climbing FlightAware ADS-B
Wed 02:45:49 PM 39.8960 -104.8650 323° Northwest 290 334 7,800 2,500 Climbing FlightAware ADS-B
Wed 02:45:57 PM 39.9050 -104.8710 333° Northwest 291 335 8,100 2,250 Climbing FlightAware ADS-B
Wed 02:46:05 PM 39.9160 -104.8750 344° North 291 335 8,400 2,357 Climbing FlightAware ADS-B
Wed 02:46:25 PM 39.9420 -104.8800 352° North 294 338 9,200 2,333 Climbing FlightAware ADS-B
Wed 02:46:41 PM 39.9640 -104.8850 350° North 299 344 9,800 1,500 Climbing FlightAware ADS-B
Wed 02:47:13 PM 40.0080 -104.8950 350° North 331 381 10,400 1,412 Climbing FlightAware ADS-B
Wed 02:47:49 PM 40.0670 -104.9090 350° North 358 412 11,400 2,000 Climbing FlightAware ADS-B
Wed 02:48:25 PM 40.1270 -104.9220 351° North 366 421 12,800 2,333 Climbing FlightAware ADS-B
Wed 02:49:01 PM 40.1880 -104.9360 350° North 371 427 14,200 2,294 Climbing FlightAware ADS-B
Wed 02:49:33 PM 40.2420 -104.9480 350° North 377 434 15,400 2,294 Climbing FlightAware ADS-B
Wed 02:50:09 PM 40.3050 -104.9630 350° North 381 438 16,800 2,261 Climbing FlightAware ADS-B
Wed 02:50:42 PM 40.3620 -104.9750 351° North 387 445 18,000 1,971 Climbing FlightAware ADS-B
Wed 02:51:19 PM 40.4290 -104.9910 350° North 396 456 19,100 1,791 Climbing FlightAware ADS-B
Wed 02:51:49 PM 40.4830 -105.0030 350° North 403 464 20,000 1,853 Climbing FlightAware ADS-B
Wed 02:52:27 PM 40.5550 -105.0200 350° North 412 474 21,200 1,760 Climbing FlightAware ADS-B
Wed 02:53:04 PM 40.6220 -105.0350 350° North 418 481 22,200 1,629 Climbing FlightAware ADS-B
Wed 02:53:37 PM 40.6850 -105.0490 350° North 425 489 23,100 1,521 Climbing FlightAware ADS-B
Wed 02:54:15 PM 40.7630 -105.0620 353° North 438 504 24,000 1,565 Climbing FlightAware ADS-B
Wed 02:54:46 PM 40.8250 -105.0640 359° North 441 507 24,900 1,588 Climbing FlightAware ADS-B
Wed 02:55:23 PM 40.9010 -105.0690 357° North 445 512 25,800 1,440 Climbing FlightAware ADS-B
Wed 02:56:01 PM 40.9800 -105.0740 357° North 451 519 26,700 1,437 Climbing FlightAware ADS-B
Wed 02:56:34 PM 41.0470 -105.0790 357° North 454 522 27,500 1,469 Climbing FlightAware ADS-B
Wed 02:56:50 PM 41.0800 -105.0910 345° North 446 513 27,900 1,364 Climbing FlightAware ADS-B
Wed 02:57:18 PM 41.1250 -105.1340 324° Northwest 438 504 28,500 1,220 Climbing FlightAware ADS-B
Wed 02:57:49 PM 41.1610 -105.2040 304° West 432 497 29,100 1,164 Climbing FlightAware ADS-B
Wed 02:58:25 PM 41.1780 -105.2970 284° West 433 498 29,800 1,054 Climbing FlightAware ADS-B
Wed 02:59:03 PM 41.1970 -105.3950 284° West 446 513 30,400 923 Climbing FlightAware ADS-B
Wed 02:59:43 PM 41.2270 -105.4960 292° West 455 524 31,000 947 Climbing FlightAware ADS-B
Wed 03:00:19 PM 41.2450 -105.5950 284° West 456 525 31,600 1,059 Climbing FlightAware ADS-B
Wed 03:00:51 PM 41.2550 -105.6860 278° West 461 531 32,200 1,029 Climbing FlightAware ADS-B
Wed 03:01:29 PM 41.2670 -105.7900 279° West 467 537 32,800 857 Climbing FlightAware ADS-B
Wed 03:02:01 PM 41.2770 -105.8810 278° West 472 543 33,200 882 Climbing FlightAware ADS-B
Wed 03:02:37 PM 41.2890 -105.9860 279° West 476 548 33,800 857 Climbing FlightAware ADS-B
Wed 03:03:11 PM 41.3000 -106.0800 279° West 479 551 34,200 329 Climbing FlightAware ADS-B
Wed 03:03:50 PM 41.3100 -106.1770 278° West 479 551 34,200 835 Level FlightAware ADS-B
Wed 03:04:30 PM 41.3240 -106.3030 278° West 478 550 35,300 868 Climbing FlightAware ADS-B
Wed 03:05:06 PM 41.3340 -106.3920 279° West 478 550 35,300  Level FlightAware ADS-B
Wed 03:05:42 PM 41.3430 -106.4820 278° West 478 550 35,300  Level FlightAware ADS-B
Wed 03:06:18 PM 41.3530 -106.5710 279° West 478 550 35,300  Level FlightAware ADS-B
Wed 03:06:55 PM 41.3620 -106.6630 277° West 478 550 35,300  Level FlightAware ADS-B
Wed 03:07:31 PM 41.3720 -106.7520 279° West 478 550 35,300  Level FlightAware ADS-B
Wed 03:08:07 PM 41.3810 -106.8410 278° West 478 550 35,300  Level FlightAware ADS-B
Wed 03:08:43 PM 41.3910 -106.9300 279° West 478 550 35,300  Level FlightAware ADS-B
Wed 03:09:17 PM 41.3990 -107.0150 277° West 478 550 35,300  Level FlightAware ADS-B
Wed 03:09:53 PM 41.4090 -107.1040 279° West 478 550 35,300  Level FlightAware ADS-B
Wed 03:10:29 PM 41.4180 -107.1940 278° West 478 550 35,300  Level FlightAware ADS-B
Wed 03:11:05 PM 41.4280 -107.2830 279° West 478 550 35,300  Level FlightAware ADS-B
Wed 03:11:57 PM 41.4410 -107.4120 278° West 478 550 35,300  Level FlightAware ADS-B
Wed 03:12:33 PM 41.4510 -107.5010 279° West 478 550 35,300  Level FlightAware ADS-B
Wed 03:13:09 PM 41.4600 -107.5910 278° West 478 550 35,300  Level FlightAware ADS-B
Wed 03:13:45 PM 41.4690 -107.6800 278° West 478 550 35,300 1,884 Level FlightAware ADS-B
Wed 03:14:35 PM 41.4969 -107.9808 278° West 467 537 38,000 1,446 Climbing Denver Center
Wed 03:15:37 PM 41.5181 -108.2019 277° West 473 544 38,000  Level Denver Center
Wed 03:16:39 PM 41.5333 -108.3678 277° West 473 544 38,000  Level Denver Center
Wed 03:17:41 PM 41.5514 -108.5617 277° West 473 544 38,000  Level Denver Center
Wed 03:18:43 PM 41.5642 -108.6997 277° West 473 544 38,000  Level Denver Center
Wed 03:19:56 PM 41.5861 -108.9492 277° West 473 544 38,000  Level Salt Lake Center
Wed 03:20:58 PM 41.6564 -109.1186 299° West 486 559 38,000  Level Salt Lake Center
Wed 03:22:00 PM 41.7408 -109.2506 311° West 491 565 38,000  Level Salt Lake Center
Wed 03:23:01 PM 41.8367 -109.4033 310° West 485 558 38,000  Level Salt Lake Center
Wed 03:24:03 PM 41.9192 -109.5356 310° West 483 556 38,000  Level Salt Lake Center
Wed 03:25:05 PM 42.0019 -109.6675 310° West 483 556 38,000  Level Salt Lake Center
Wed 03:26:07 PM 42.0983 -109.8225 310° West 485 558 38,000  Level Salt Lake Center
Wed 03:27:08 PM 42.1894 -109.9458 315° West 485 558 38,000  Level Salt Lake Center
Wed 03:28:10 PM 42.3089 -110.0739 322° Northwest 490 564 38,000  Level Salt Lake Center
Wed 03:29:12 PM 42.4092 -110.1861 320° Northwest 490 564 38,000  Level Salt Lake Center
Wed 03:30:14 PM 42.5300 -110.3150 322° Northwest 493 567 38,000  Level Salt Lake Center
Wed 03:31:16 PM 42.6328 -110.4247 322° Northwest 492 566 38,000  Level Salt Lake Center
Wed 03:32:17 PM 42.7414 -110.5431 321° Northwest 490 564 38,000  Level Salt Lake Center
Wed 03:33:19 PM 42.8603 -110.6714 322° Northwest 489 563 38,000  Level Salt Lake Center
Wed 03:34:21 PM 42.9483 -110.8000 313° West 487 560 38,000  Level Salt Lake Center
Wed 03:35:23 PM 43.0400 -110.9631 308° West 485 558 38,000  Level Salt Lake Center
Wed 03:36:25 PM 43.1183 -111.1028 308° West 483 556 38,000  Level Salt Lake Center
Wed 03:37:26 PM 43.1961 -111.2444 307° West 484 557 38,000  Level Salt Lake Center
Wed 03:38:28 PM 43.2867 -111.4069 307° West 481 554 38,000  Level Salt Lake Center
Wed 03:39:30 PM 43.3647 -111.5489 307° West 484 557 38,000  Level Salt Lake Center
Wed 03:40:32 PM 43.4564 -111.7131 308° West 484 557 38,000  Level Salt Lake Center
Wed 03:46:13 PM 43.9139 -112.5610 308° West 481 554 38,000  Level FlightAware ADS-B
Wed 03:46:43 PM 43.9397 -112.6108 308° West 479 551 38,000  Level Salt Lake Center
Wed 03:47:45 PM 44.0286 -112.7783 306° West 480 552 38,000  Level Salt Lake Center
Wed 03:48:46 PM 44.1033 -112.9242 306° West 481 554 38,000  Level Salt Lake Center
Wed 03:54:12 PM 44.6000 -113.7070 306° West 496 571 38,000  Level FlightAware ADS-B
Wed 03:54:41 PM 44.6500 -113.7720 317° Northwest 496 571 38,000  Level FlightAware ADS-B
Wed 03:55:21 PM 44.7060 -113.8490 316° Northwest 496 571 38,000  Level FlightAware ADS-B
Wed 03:55:58 PM 44.7580 -113.9190 316° Northwest 496 571 38,000  Level FlightAware ADS-B
Wed 03:56:32 PM 44.8060 -113.9840 316° Northwest 496 571 38,000  Level FlightAware ADS-B
Wed 03:57:09 PM 44.8570 -114.0550 315° West 496 571 38,000  Level FlightAware ADS-B
Wed 03:57:45 PM 44.9080 -114.1240 316° Northwest 496 571 38,000  Level FlightAware ADS-B
Wed 03:58:21 PM 44.9580 -114.1930 316° Northwest 496 571 38,000  Level FlightAware ADS-B
Wed 03:58:58 PM 45.0100 -114.2630 316° Northwest 496 571 38,000  Level FlightAware ADS-B
Wed 03:59:34 PM 45.0610 -114.3320 316° Northwest 496 571 38,000  Level FlightAware ADS-B
Wed 04:00:11 PM 45.1130 -114.4030 316° Northwest 496 571 38,000  Level FlightAware ADS-B
Wed 04:00:47 PM 45.1630 -114.4730 315° West 496 571 38,000  Level FlightAware ADS-B
Wed 04:01:23 PM 45.2140 -114.5420 316° Northwest 496 571 38,000  Level FlightAware ADS-B
Wed 04:01:59 PM 45.2640 -114.6110 316° Northwest 496 571 38,000  Level FlightAware ADS-B
Wed 04:02:57 PM 45.3400 -115.0130 285° West 485 558 38,000  Level FlightAware ADS-B
Wed 04:03:31 PM 45.3810 -115.1000 304° West 485 558 38,000  Level FlightAware ADS-B
Wed 04:04:07 PM 45.4270 -115.2000 303° West 487 560 38,000  Level FlightAware ADS-B
Wed 04:04:43 PM 45.4710 -115.2960 303° West 487 560 38,000  Level FlightAware ADS-B
Wed 04:05:19 PM 45.5160 -115.3940 303° West 488 562 38,000  Level FlightAware ADS-B
Wed 04:05:55 PM 45.5600 -115.4890 304° West 487 560 38,000  Level FlightAware ADS-B
Wed 04:06:27 PM 45.5990 -115.5760 303° West 487 560 38,000  Level FlightAware ADS-B
Wed 04:07:03 PM 45.6440 -115.6740 303° West 486 559 38,000  Level FlightAware ADS-B
Wed 04:07:39 PM 45.6870 -115.7690 303° West 484 557 38,000  Level FlightAware ADS-B
Wed 04:08:11 PM 45.7260 -115.8560 303° West 483 556 38,000  Level FlightAware ADS-B
Wed 04:08:47 PM 45.7680 -115.9500 303° West 481 554 38,000  Level FlightAware ADS-B
Wed 04:09:23 PM 45.8130 -116.0490 303° West 480 552 38,000  Level FlightAware ADS-B
Wed 04:09:59 PM 45.8550 -116.1430 303° West 480 552 38,000  Level FlightAware ADS-B
Wed 04:10:35 PM 45.8990 -116.2420 303° West 481 554 38,000  Level FlightAware ADS-B
Wed 04:10:58 PM 45.9250 -116.3010 302° West 481 554 38,000  Level FlightAware ADS-B
Wed 04:11:47 PM 45.9850 -116.4350 303° West 483 556 38,000  Level FlightAware ADS-B
Wed 04:12:19 PM 46.0230 -116.5230 302° West 483 556 38,000  Level FlightAware ADS-B
Wed 04:12:55 PM 46.0660 -116.6200 303° West 484 557 38,000  Level FlightAware ADS-B
Wed 04:13:29 PM 46.1060 -116.7110 302° West 481 554 38,000  Level FlightAware ADS-B
Wed 04:14:03 PM 46.1460 -116.8020 302° West 481 554 38,000  Level FlightAware ADS-B
Wed 04:14:39 PM 46.1870 -116.8970 302° West 482 555 38,000  Level FlightAware ADS-B
Wed 04:15:17 PM 46.2280 -116.9950 301° West 483 556 38,000  Level FlightAware ADS-B
Wed 04:15:53 PM 46.2640 -117.0800 302° West 483 556 38,000  Level FlightAware ADS-B
Wed 04:16:27 PM 46.2970 -117.1600 301° West 483 556 38,000  Level FlightAware ADS-B
Wed 04:17:01 PM 46.3300 -117.2400 301° West 483 556 38,000  Level FlightAware ADS-B
Wed 04:17:37 PM 46.3650 -117.3250 301° West 483 556 38,000  Level FlightAware ADS-B
Wed 04:18:15 PM 46.4030 -117.4150 302° West 483 556 38,000  Level FlightAware ADS-B
Wed 04:18:52 PM 46.4390 -117.5020 301° West 483 556 38,000  Level FlightAware ADS-B
Wed 04:19:27 PM 46.4730 -117.5850 301° West 483 556 38,000  Level FlightAware ADS-B
Wed 04:20:04 PM 46.5090 -117.6730 301° West 483 556 38,000  Level FlightAware ADS-B
Wed 04:20:40 PM 46.5440 -117.7580 301° West 483 556 38,000  Level FlightAware ADS-B
Wed 04:21:04 PM 46.5680 -117.8150 302° West 483 556 38,000  Level FlightAware ADS-B
Wed 04:21:40 PM 46.6030 -117.9000 301° West 483 556 38,000  Level FlightAware ADS-B
Wed 04:22:16 PM 46.6380 -117.9850 301° West 483 556 38,000  Level FlightAware ADS-B
Wed 04:22:47 PM 46.7610 -118.2520 304° West 483 556 38,000  Level FlightAware ADS-B
Wed 04:23:22 PM 46.7960 -118.3360 301° West 480 552 38,000  Level FlightAware ADS-B
Wed 04:24:07 PM 46.8530 -118.4740 301° West 479 551 38,000  Level FlightAware ADS-B
Wed 04:24:42 PM 46.8920 -118.5690 301° West 479 551 38,000  Level FlightAware ADS-B
Wed 04:25:18 PM 46.9340 -118.6730 301° West 483 556 38,000  Level FlightAware ADS-B
Wed 04:25:52 PM 46.9720 -118.7670 301° West 485 558 38,000  Level FlightAware ADS-B
Wed 04:26:28 PM 47.0130 -118.8680 301° West 486 559 38,000  Level FlightAware ADS-B
Wed 04:27:04 PM 47.0540 -118.9700 301° West 487 560 38,000  Level FlightAware ADS-B
Wed 04:27:27 PM 47.0815 -119.0370 301° West 491 565 38,000  Level FlightAware ADS-B
Wed 04:27:59 PM 47.1181 -119.1290 300° West 493 567 38,000  Level FlightAware ADS-B
Wed 04:28:29 PM 47.1531 -119.2160 301° West 493 567 38,000  Level FlightAware ADS-B
Wed 04:29:01 PM 47.1893 -119.3070 300° West 493 567 38,000  Level FlightAware ADS-B
Wed 04:29:32 PM 47.2253 -119.3980 300° West 492 566 38,000  Level FlightAware ADS-B
Wed 04:30:02 PM 47.2597 -119.4850 300° West 493 567 38,000  Level FlightAware ADS-B
Wed 04:30:33 PM 47.2950 -119.5740 300° West 494 568 38,000  Level FlightAware ADS-B
Wed 04:31:03 PM 47.3292 -119.6610 300° West 494 568 38,000  Level FlightAware ADS-B
Wed 04:31:33 PM 47.3634 -119.7490 300° West 494 568 38,000  Level FlightAware ADS-B
Wed 04:32:04 PM 47.3983 -119.8380 300° West 495 570 38,000  Level FlightAware ADS-B
Wed 04:32:34 PM 47.4325 -119.9260 300° West 496 571 38,000  Level FlightAware ADS-B
Wed 04:33:04 PM 47.4671 -120.0150 300° West 498 573 38,000  Level FlightAware ADS-B
Wed 04:33:34 PM 47.5013 -120.1030 300° West 497 572 38,000  Level FlightAware ADS-B
Wed 04:34:05 PM 47.5360 -120.1930 300° West 497 572 38,000  Level FlightAware ADS-B
Wed 04:34:36 PM 47.5708 -120.2840 300° West 494 568 38,000  Level FlightAware ADS-B
Wed 04:35:06 PM 47.6048 -120.3730 300° West 496 571 38,000  Level FlightAware ADS-B
Wed 04:35:37 PM 47.6399 -120.4650 300° West 495 570 38,000  Level FlightAware ADS-B
Wed 04:36:07 PM 47.6738 -120.5540 300° West 496 571 38,000  Level FlightAware ADS-B
Wed 04:36:37 PM 47.7074 -120.6420 300° West 496 571 38,000  Level FlightAware ADS-B
Wed 04:37:08 PM 47.7420 -120.7340 299° West 497 572 38,000  Level FlightAware ADS-B
Wed 04:37:38 PM 47.7760 -120.8240 299° West 498 573 38,000  Level FlightAware ADS-B
Wed 04:38:08 PM 47.8096 -120.9140 299° West 499 574 38,000  Level FlightAware ADS-B
Wed 04:38:39 PM 47.8439 -121.0050 299° West 500 575 38,000  Level FlightAware ADS-B
Wed 04:39:09 PM 47.8774 -121.0950 299° West 500 575 38,000  Level FlightAware ADS-B
Wed 04:39:40 PM 47.9116 -121.1870 299° West 498 573 38,000  Level FlightAware ADS-B
Wed 04:40:10 PM 47.9456 -121.2790 299° West 500 575 38,000  Level FlightAware ADS-B
Wed 04:40:40 PM 47.9790 -121.3700 299° West 501 577 38,000  Level FlightAware ADS-B
Wed 04:41:11 PM 48.0128 -121.4620 299° West 503 579 38,000  Level FlightAware ADS-B
Wed 04:41:41 PM 48.0466 -121.5540 299° West 506 582 38,000  Level FlightAware ADS-B
Wed 04:42:11 PM 48.0806 -121.6470 299° West 506 582 38,000  Level FlightAware ADS-B
Wed 04:42:41 PM 48.1140 -121.7390 299° West 505 581 38,000  Level FlightAware ADS-B
Wed 04:43:12 PM 48.1478 -121.8320 299° West 507 583 38,000  Level FlightAware ADS-B
Wed 04:43:42 PM 48.1816 -121.9260 298° West 506 582 38,000  Level FlightAware ADS-B
Wed 04:44:13 PM 48.2162 -122.0210 299° West 505 581 38,000  Level FlightAware ADS-B
Wed 04:44:43 PM 48.2493 -122.1140 298° West 504 580 38,000  Level FlightAware ADS-B
Wed 04:45:17 PM 48.2862 -122.2170 298° West 504 580 38,000  Level FlightAware ADS-B
Wed 04:45:49 PM 48.3209 -122.3150 298° West 506 582 38,000  Level FlightAware ADS-B
Wed 04:46:21 PM 48.3560 -122.4140 298° West 507 583 38,000  Level FlightAware ADS-B
Wed 04:46:52 PM 48.3910 -122.5130 298° West 508 585 38,000  Level FlightAware ADS-B
Wed 04:47:26 PM 48.4281 -122.6190 298° West 510 587 38,000  Level FlightAware ADS-B
Wed 04:48:00 PM 48.4655 -122.7250 298° West 510 587 38,000  Level FlightAware ADS-B
Wed 04:48:31 PM 48.4987 -122.8210 298° West 510 587 38,000  Level FlightAware ADS-B
Wed 04:49:01 PM 48.5316 -122.9150 298° West 510 587 38,000  Level FlightAware ADS-B
Wed 04:49:31 PM 48.5645 -123.0100 298° West 509 586 38,000  Level FlightAware ADS-B
Wed 04:50:01 PM 48.5970 -123.1040 298° West 509 586 38,000  Level FlightAware ADS-B
Wed 04:50:31 PM 48.6297 -123.1990 298° West 509 586 38,000  Level FlightAware ADS-B
Wed 04:51:23 PM 48.6852 -123.3620 297° West 509 586 38,000  Level FlightAware ADS-B
Wed 04:51:53 PM 48.7184 -123.4580 298° West 512 589 38,000  Level FlightAware ADS-B
Wed 04:52:45 PM 48.7790 -123.6130 301° West 514 592 38,000  Level FlightAware ADS-B
Wed 04:53:17 PM 48.8200 -123.7170 301° West 514 592 38,000  Level FlightAware ADS-B
Wed 04:53:37 PM 48.8447 -123.7780 302° West 515 593 38,000  Level FlightAware ADS-B
Wed 04:54:08 PM 48.8825 -123.8730 301° West 515 593 38,000  Level FlightAware ADS-B
Wed 04:54:41 PM 48.9235 -123.9770 301° West 516 594 38,000  Level FlightAware ADS-B
Wed 04:55:38 PM 48.9937 -124.1550 301° West 516 594 38,000  Level FlightAware ADS-B
Wed 04:56:11 PM 49.0336 -124.2560 301° West 517 595 38,000  Level FlightAware ADS-B
Wed 04:56:50 PM 49.0810 -124.3780 301° West 516 594 38,000  Level FlightAware ADS-B
Wed 04:57:20 PM 49.1175 -124.4720 301° West 514 592 38,000  Level FlightAware ADS-B
Wed 04:57:58 PM 49.1620 -124.5880 300° West 515 593 38,000  Level FlightAware ADS-B
Wed 04:58:34 PM 49.2070 -124.7020 301° West 515 593 38,000  Level FlightAware ADS-B
Wed 04:59:10 PM 49.2490 -124.8130 300° West 512 589 38,000  Level FlightAware ADS-B
Wed 04:59:42 PM 49.2870 -124.9120 301° West 509 586 38,000  Level FlightAware ADS-B
Wed 05:00:18 PM 49.3290 -125.0230 300° West 508 585 38,000  Level FlightAware ADS-B
Wed 05:00:50 PM 49.3680 -125.1240 301° West 506 582 38,000  Level FlightAware ADS-B
Wed 05:01:28 PM 49.4120 -125.2410 300° West 505 581 38,000  Level FlightAware ADS-B
Wed 05:02:04 PM 49.4540 -125.3540 300° West 505 581 38,000  Level FlightAware ADS-B
Wed 05:02:34 PM 49.4890 -125.4480 300° West 506 582 38,000  Level FlightAware ADS-B
Wed 05:03:14 PM 49.5360 -125.5720 300° West 508 585 38,000  Level FlightAware ADS-B
Wed 05:03:50 PM 49.5780 -125.6850 300° West 508 585 38,000  Level FlightAware ADS-B
Wed 05:04:24 PM 49.6170 -125.7920 299° West 506 582 38,000  Level FlightAware ADS-B
Wed 05:05:00 PM 49.6580 -125.9030 300° West 502 578 38,000  Level FlightAware ADS-B
Wed 05:05:32 PM 49.6940 -126.0020 299° West 501 577 38,000  Level FlightAware ADS-B
Wed 05:06:06 PM 49.7330 -126.1070 300° West 501 577 38,000  Level FlightAware ADS-B
Wed 05:06:41 PM 49.7720 -126.2150 299° West 500 575 38,000  Level FlightAware ADS-B
Wed 05:07:16 PM 49.8080 -126.3140 299° West 500 575 38,000  Level FlightAware ADS-B
Wed 05:08:06 PM 49.8680 -126.4790 299° West 498 573 38,000  Level FlightAware ADS-B
Wed 05:08:41 PM 49.9060 -126.5870 299° West 498 573 38,000  Level FlightAware ADS-B
Wed 05:09:14 PM 49.9420 -126.6880 299° West 495 570 38,000  Level FlightAware ADS-B
Wed 05:09:49 PM 49.9800 -126.7950 299° West 488 562 38,000  Level FlightAware ADS-B
Wed 05:10:28 PM 50.0240 -126.9190 299° West 492 566 38,000  Level FlightAware ADS-B
Wed 05:11:02 PM 50.0630 -127.0300 299° West 496 571 38,000  Level FlightAware ADS-B
Wed 05:11:56 PM 50.1190 -127.1900 299° West 498 573 38,000  Level FlightAware ADS-B
Wed 05:12:41 PM 50.1700 -127.3340 299° West 497 572 38,000  Level FlightAware ADS-B
Wed 05:13:16 PM 50.2060 -127.4380 298° West 498 573 38,000  Level FlightAware ADS-B
Wed 05:13:55 PM 50.2430 -127.5430 299° West 498 573 38,000  Level FlightAware ADS-B
Wed 05:14:31 PM 50.2770 -127.6390 299° West 498 573 38,000  Level FlightAware ADS-B
Wed 05:15:05 PM 50.3090 -127.7300 299° West 498 573 38,000  Level FlightAware ADS-B
Wed 05:15:24 PM 50.3280 -127.8630 283° West 496 571 38,000  Level FlightAware ADS-B
Wed 05:16:19 PM 50.3710 -128.0280 292° West 495 570 38,000  Level FlightAware ADS-B
Wed 05:16:55 PM 50.3970 -128.1290 292° West 495 570 38,000  Level FlightAware ADS-B
Wed 05:17:32 PM 50.4240 -128.2340 292° West 495 570 38,000  Level FlightAware ADS-B
Wed 05:18:08 PM 50.4500 -128.3360 292° West 495 570 38,000  Level FlightAware ADS-B
Wed 05:18:42 PM 50.4750 -128.4330 292° West 495 570 38,000  Level FlightAware ADS-B
Wed 05:19:18 PM 50.5010 -128.5350 292° West 495 570 38,000  Level FlightAware ADS-B
Wed 05:19:54 PM 50.5270 -128.6370 292° West 495 570 38,000  Level FlightAware ADS-B
Wed 05:20:30 PM 50.5540 -128.7390 293° West 495 570 38,000  Level FlightAware ADS-B
Wed 05:21:06 PM 50.5800 -128.8420 292° West 495 570 38,000  Level FlightAware ADS-B
Wed 05:21:42 PM 50.6060 -128.9440 292° West 495 570 38,000  Level FlightAware ADS-B
Wed 05:22:18 PM 50.6320 -129.0460 292° West 495 570 38,000  Level FlightAware ADS-B
Wed 05:22:54 PM 50.6590 -129.1490 292° West 495 570 38,000  Level FlightAware ADS-B
Wed 05:23:30 PM 50.6850 -129.2510 292° West 495 570 38,000  Level FlightAware ADS-B
Wed 05:24:06 PM 50.7110 -129.3540 292° West 495 570 38,000  Level FlightAware ADS-B
Wed 05:24:42 PM 50.7370 -129.4570 292° West 495 570 38,000  Level FlightAware ADS-B
Wed 05:25:16 PM 50.7620 -129.5540 292° West 495 570 38,000 1,008 Level FlightAware ADS-B
Wed 05:26:41 PM 50.8667 -130.1000 292° West 480 552 40,000 828 Climbing Vancouver Center
Wed 05:27:41 PM 50.9167 -130.3167 290° West 480 552 40,000  Level Vancouver Center
Wed 05:28:41 PM 50.9500 -130.5167 285° West 480 552 40,000  Level Vancouver Center
Wed 05:29:41 PM 51.0000 -130.7000 293° West 480 552 40,000  Level Vancouver Center
Wed 05:30:41 PM 51.0500 -130.9000 292° West 480 552 40,000  Level Vancouver Center
Wed 05:31:41 PM 51.1000 -131.1167 290° West 480 552 40,000  Level Vancouver Center
Wed 05:32:41 PM 51.1333 -131.3167 285° West 480 552 40,000  Level Vancouver Center
Wed 05:33:41 PM 51.1833 -131.5000 294° West 460 529 40,000  Level Vancouver Center
Wed 05:34:41 PM 51.2333 -131.7000 292° West 480 552 40,000  Level Vancouver Center
Wed 05:35:41 PM 51.2667 -131.9000 285° West 470 541 40,000  Level Vancouver Center
Wed 05:36:41 PM 51.3167 -132.0833 294° West 470 541 40,000  Level Vancouver Center
Wed 05:37:41 PM 51.3500 -132.2833 285° West 480 552 40,000  Level Vancouver Center
Wed 05:38:41 PM 51.3833 -132.5000 284° West 480 552 40,000  Level Vancouver Center
Wed 05:39:41 PM 51.4500 -132.6833 300° West 480 552 40,000  Level Vancouver Center
Wed 05:40:41 PM 51.4833 -132.9000 284° West 480 552 40,000  Level Vancouver Center
Wed 05:41:41 PM 51.5167 -133.1000 285° West 480 552 40,000  Level Vancouver Center
Wed 05:42:41 PM 51.5667 -133.3000 292° West 470 541 40,000  Level Vancouver Center
Wed 05:43:41 PM 51.6000 -133.5000 285° West 470 541 40,000  Level Vancouver Center
Wed 05:44:41 PM 51.6500 -133.7000 292° West 470 541 40,000  Level Vancouver Center
Wed 05:45:41 PM 51.6833 -133.8833 286° West 470 541 40,000  Level Vancouver Center
Wed 05:46:41 PM 51.7167 -134.0833 285° West 470 541 40,000  Level Vancouver Center
Wed 05:47:41 PM 51.7667 -134.3167 289° West 470 541 40,000  Level Vancouver Center
Wed 05:48:41 PM 51.8000 -134.5167 285° West 470 541 40,000  Level Vancouver Center
Wed 05:49:41 PM 51.8500 -134.7167 292° West 470 541 40,000  Level Vancouver Center
Wed 05:50:41 PM 51.8667 -134.9167 278° West 470 541 40,000  Level Vancouver Center
Wed 05:51:41 PM 51.9000 -135.1167 285° West 470 541 40,000  Level Vancouver Center
Wed 05:52:41 PM 51.9333 -135.3167 285° West 470 541 40,000  Level Vancouver Center
Wed 05:53:40 PM 52.0000 -135.4500 292° West 471 542 40,000  Level Oakland Oceanic (ODAPS)
Wed 05:53:41 PM 51.9833 -135.5167 292° West 480 552 40,000  Level Vancouver Center
Wed 05:54:41 PM 52.0333 -135.7167 292° West 470 541 40,000  Level Vancouver Center
Wed 05:55:41 PM 52.0833 -135.9167 292° West 480 552 40,000  Level Vancouver Center
Wed 05:56:41 PM 52.1167 -136.1333 284° West 470 541 40,000  Level Vancouver Center
Wed 05:57:31 PM 52.1833 -136.2167 291° West 470 541 40,000  Level Oakland Oceanic (ODAPS)
Wed 05:58:41 PM 52.2167 -136.5167 291° West 460 529 40,000  Level Vancouver Center
Wed 05:59:41 PM 52.2667 -136.7167 292° West 500 575 40,000  Level Vancouver Center
Wed 06:00:41 PM 52.3167 -136.9333 291° West 470 541 40,000  Level Vancouver Center
Wed 06:01:41 PM 52.3500 -137.1333 285° West 460 529 40,000  Level Vancouver Center
Wed 06:02:41 PM 52.4000 -137.3333 292° West 470 541 40,000  Level Vancouver Center
Wed 06:03:41 PM 52.4500 -137.5167 294° West 470 541 40,000  Level Vancouver Center
Wed 06:04:41 PM 52.4833 -137.7000 287° West 460 529 40,000  Level Vancouver Center
Wed 06:05:41 PM 52.5333 -137.9167 291° West 470 541 40,000  Level Vancouver Center
Wed 06:06:41 PM 52.5833 -138.1167 292° West 460 529 40,000  Level Vancouver Center
Wed 06:07:41 PM 52.6167 -138.3333 284° West 460 529 40,000  Level Vancouver Center
Wed 06:08:41 PM 52.6500 -138.5000 288° West 460 529 40,000  Level Vancouver Center
Wed 06:11:28 PM 52.8000 -138.9667 288° West 460 529 40,000  Level Oakland Oceanic (ODAPS)
Wed 06:16:37 PM 53.0000 -140.0000 301° West 465 535 40,000  Level Oakland Oceanic (ODAPS)
Wed 06:17:00 PM 53.0677 -140.1856 301° West 460 529 40,000  Level FlightAware Transoceanic
Wed 06:18:00 PM 53.1352 -140.3717 301° West 460 529 40,000  Level FlightAware Transoceanic
Wed 06:19:00 PM 53.2024 -140.5585 301° West 460 529 40,000  Level FlightAware Transoceanic
Wed 06:20:00 PM 53.2692 -140.7458 301° West 460 529 40,000  Level FlightAware Transoceanic
Wed 06:20:08 PM 53.2333 -140.6667 301° West 459 528 40,000  Level Oakland Oceanic (ODAPS)
Wed 06:21:00 PM 53.3358 -140.9338 301° West 460 529 40,000  Level FlightAware Transoceanic
Wed 06:22:00 PM 53.3943 -141.1001 300° West 465 535 40,000  Level FlightAware Transoceanic
Wed 06:23:00 PM 53.4591 -141.2854 300° West 465 535 40,000  Level FlightAware Transoceanic
Wed 06:24:00 PM 53.5235 -141.4713 300° West 465 535 40,000  Level FlightAware Transoceanic
Wed 06:25:00 PM 53.5877 -141.6577 300° West 465 535 40,000  Level FlightAware Transoceanic
Wed 06:25:19 PM 53.5667 -141.6167 300° West 461 531 40,000  Level Oakland Oceanic (ODAPS)
Wed 06:26:00 PM 53.6172 -141.7637 300° West 459 528 40,000  Level FlightAware Transoceanic
Wed 06:27:00 PM 53.6802 -141.9485 300° West 459 528 40,000  Level FlightAware Transoceanic
Wed 06:28:00 PM 53.7429 -142.1338 300° West 459 528 40,000  Level FlightAware Transoceanic
Wed 06:29:00 PM 53.8054 -142.3197 300° West 459 528 40,000  Level FlightAware Transoceanic
Wed 06:30:00 PM 53.8675 -142.5061 299° West 459 528 40,000  Level FlightAware Transoceanic
Wed 06:31:00 PM 53.9488 -142.7523 299° West 461 531 40,000  Level FlightAware Transoceanic
Wed 06:32:00 PM 54.0114 -142.9436 299° West 461 531 40,000  Level FlightAware Transoceanic
Wed 06:33:00 PM 54.0737 -143.1354 299° West 461 531 40,000  Level FlightAware Transoceanic
Wed 06:34:00 PM 54.1357 -143.3279 299° West 461 531 40,000  Level FlightAware Transoceanic
Wed 06:35:00 PM 54.1975 -143.5209 299° West 461 531 40,000  Level FlightAware Transoceanic
Wed 06:36:00 PM 54.2589 -143.7145 298° West 461 531 40,000  Level FlightAware Transoceanic
Wed 06:37:00 PM 54.3200 -143.9086 298° West 461 531 40,000  Level FlightAware Transoceanic
Wed 06:38:00 PM 54.3807 -144.1034 298° West 461 531 40,000  Level FlightAware Transoceanic
Wed 06:39:00 PM 54.4412 -144.2987 298° West 461 531 40,000  Level FlightAware Transoceanic
Wed 06:39:12 PM 54.4167 -144.2167 298° West 454 522 40,000  Level Oakland Oceanic (ODAPS)
Wed 06:40:00 PM 54.5014 -144.4946 298° West 461 531 40,000  Level FlightAware Transoceanic
Wed 06:41:00 PM 54.5612 -144.6910 298° West 461 531 40,000  Level FlightAware Transoceanic
Wed 06:42:00 PM 54.6207 -144.8881 297° West 461 531 40,000  Level FlightAware Transoceanic
Wed 06:43:00 PM 54.6799 -145.0857 297° West 461 531 40,000  Level FlightAware Transoceanic
Wed 06:44:00 PM 54.7388 -145.2839 297° West 461 531 40,000  Level FlightAware Transoceanic
Wed 06:45:00 PM 54.7664 -145.3753 297° West 454 522 40,000  Level FlightAware Transoceanic
Wed 06:46:00 PM 54.8236 -145.5704 297° West 454 522 40,000  Level FlightAware Transoceanic
Wed 06:47:00 PM 54.8805 -145.7660 297° West 454 522 40,000  Level FlightAware Transoceanic
Wed 06:48:00 PM 54.9371 -145.9621 297° West 454 522 40,000  Level FlightAware Transoceanic
Wed 06:49:00 PM 54.9933 -146.1588 296° West 454 522 40,000  Level FlightAware Transoceanic
Wed 06:50:00 PM 55.0493 -146.3561 296° West 454 522 40,000  Level FlightAware Transoceanic
Wed 06:51:00 PM 55.1049 -146.5539 296° West 454 522 40,000  Level FlightAware Transoceanic
Wed 06:52:00 PM 55.1602 -146.7522 296° West 454 522 40,000  Level FlightAware Transoceanic
Wed 06:53:00 PM 55.2151 -146.9511 296° West 454 522 40,000  Level FlightAware Transoceanic
Wed 06:53:03 PM 55.1833 -146.8500 296° West 437 503 40,000  Level Oakland Oceanic (ODAPS)
Wed 06:54:00 PM 55.2698 -147.1506 296° West 454 522 40,000  Level FlightAware Transoceanic
Wed 06:55:00 PM 55.3241 -147.3506 295° West 454 522 40,000  Level FlightAware Transoceanic
Wed 06:56:00 PM 55.3781 -147.5511 295° West 454 522 40,000  Level FlightAware Transoceanic
Wed 06:57:00 PM 55.4318 -147.7522 295° West 454 522 40,000  Level FlightAware Transoceanic
Wed 06:58:00 PM 55.4851 -147.9538 295° West 454 522 40,000  Level FlightAware Transoceanic
Wed 06:59:00 PM 55.4990 -148.0159 295° West 437 503 40,000  Level FlightAware Transoceanic
Wed 07:00:00 PM 55.5505 -148.2120 295° West 437 503 40,000  Level FlightAware Transoceanic
Wed 07:01:00 PM 55.6018 -148.4086 295° West 437 503 40,000  Level FlightAware Transoceanic
Wed 07:02:00 PM 55.6527 -148.6057 294° West 437 503 40,000  Level FlightAware Transoceanic
Wed 07:03:00 PM 55.7032 -148.8034 294° West 437 503 40,000  Level FlightAware Transoceanic
Wed 07:04:00 PM 55.7535 -149.0016 294° West 437 503 40,000  Level FlightAware Transoceanic
Wed 07:05:00 PM 55.8035 -149.2002 294° West 437 503 40,000  Level FlightAware Transoceanic
Wed 07:06:00 PM 55.8531 -149.3994 294° West 437 503 40,000  Level FlightAware Transoceanic
Wed 07:07:00 PM 55.9024 -149.5991 294° West 437 503 40,000  Level FlightAware Transoceanic
Wed 07:07:01 PM 55.9000 -149.6000 294° West 459 528 40,000  Level Oakland Oceanic (ODAPS)
Wed 07:08:00 PM 55.9514 -149.7993 294° West 437 503 40,000  Level FlightAware Transoceanic
Wed 07:08:43 PM 56.0000 -150.0000 294° West 465 535 40,000  Level Oakland Oceanic (ODAPS)
Wed 07:09:00 PM 56.0000 -150.0000 294° West 437 503 40,000  Level FlightAware Transoceanic
Wed 07:10:00 PM 56.0528 -150.2102 294° West 437 503 40,000  Level FlightAware Transoceanic
Wed 07:11:00 PM 56.1053 -150.4209 294° West 437 503 40,000  Level FlightAware Transoceanic
Wed 07:12:00 PM 56.1575 -150.6322 294° West 437 503 40,000  Level FlightAware Transoceanic
Wed 07:13:00 PM 56.2139 -150.8634 294° West 459 528 40,000  Level FlightAware Transoceanic
Wed 07:14:00 PM 56.2664 -151.0807 293° West 459 528 40,000  Level FlightAware Transoceanic
Wed 07:15:00 PM 56.3117 -151.2696 293° West 465 535 40,000  Level FlightAware Transoceanic
Wed 07:16:00 PM 56.3623 -151.4832 293° West 465 535 40,000  Level FlightAware Transoceanic
Wed 07:17:00 PM 56.4126 -151.6974 293° West 465 535 40,000  Level FlightAware Transoceanic
Wed 07:18:00 PM 56.4626 -151.9121 293° West 465 535 40,000  Level FlightAware Transoceanic
Wed 07:19:00 PM 56.5121 -152.1274 293° West 465 535 40,000  Level FlightAware Transoceanic
Wed 07:19:01 PM 56.5500 -152.1333 292° West 490 564 40,000  Level Anchorage Center
Wed 07:20:00 PM 56.5613 -152.3432 292° West 465 535 40,000  Level FlightAware Transoceanic
Wed 07:20:02 PM 56.5833 -152.3333 287° West 450 518 40,000  Level Anchorage Center
Wed 07:21:00 PM 56.6101 -152.5596 292° West 465 535 40,000  Level FlightAware Transoceanic
Wed 07:21:01 PM 56.6333 -152.5500 293° West 460 529 40,000  Level Anchorage Center
Wed 07:22:00 PM 56.6586 -152.7766 292° West 465 535 40,000  Level FlightAware Transoceanic
Wed 07:22:01 PM 56.6833 -152.7667 293° West 460 529 40,000  Level Anchorage Center
Wed 07:23:00 PM 56.7066 -152.9941 292° West 465 535 40,000  Level FlightAware Transoceanic
Wed 07:23:01 PM 56.7333 -152.9833 293° West 460 529 40,000  Level Anchorage Center
Wed 07:24:00 PM 56.7543 -153.2122 292° West 465 535 40,000  Level FlightAware Transoceanic
Wed 07:24:01 PM 56.7833 -153.2000 293° West 450 518 40,000  Level Anchorage Center
Wed 07:25:02 PM 56.8333 -153.4167 293° West 460 529 40,000 198 Level Anchorage Center
Wed 07:26:02 PM 56.8833 -153.6333 293° West 460 529 40,400 303 Climbing Anchorage Center
Wed 07:27:01 PM 56.9167 -153.8667 285° West 460 529 40,600 300 Climbing Anchorage Center
Wed 07:28:02 PM 56.9667 -154.0833 293° West 470 541 41,000 198 Climbing Anchorage Center
Wed 07:29:02 PM 57.0167 -154.3167 292° West 470 541 41,000  Level Anchorage Center
Wed 07:30:02 PM 57.0667 -154.5333 293° West 470 541 41,000  Level Anchorage Center
Wed 07:31:02 PM 57.1167 -154.7667 292° West 470 541 41,000  Level Anchorage Center
Wed 07:32:02 PM 57.1500 -155.0000 285° West 470 541 41,000  Level Anchorage Center
Wed 07:33:02 PM 57.2000 -155.2167 293° West 470 541 41,000  Level Anchorage Center
Wed 07:34:02 PM 57.2500 -155.4500 292° West 470 541 41,000  Level Anchorage Center
Wed 07:35:02 PM 57.2833 -155.6833 285° West 470 541 41,000  Level Anchorage Center
Wed 07:36:03 PM 57.3333 -155.9167 292° West 470 541 41,000  Level Anchorage Center
Wed 07:37:02 PM 57.3833 -156.1500 292° West 470 541 41,000  Level Anchorage Center
Wed 07:38:02 PM 57.4167 -156.3833 285° West 470 541 41,000  Level Anchorage Center
Wed 07:39:03 PM 57.4667 -156.6167 292° West 470 541 41,000  Level Anchorage Center
Wed 07:40:03 PM 57.5000 -156.8500 285° West 470 541 41,000  Level Anchorage Center
Wed 07:41:03 PM 57.5500 -157.0833 292° West 470 541 41,000  Level Anchorage Center
Wed 07:42:03 PM 57.5833 -157.3167 285° West 470 541 41,000  Level Anchorage Center
Wed 07:43:03 PM 57.6333 -157.5500 292° West 470 541 41,000  Level Anchorage Center
Wed 07:44:03 PM 57.6667 -157.7833 285° West 470 541 41,000  Level Anchorage Center
Wed 07:45:03 PM 57.7167 -158.0167 292° West 470 541 41,000  Level Anchorage Center
Wed 07:46:03 PM 57.7500 -158.2667 284° West 470 541 41,000  Level Anchorage Center
Wed 07:47:04 PM 57.7833 -158.5000 285° West 470 541 41,000  Level Anchorage Center
Wed 07:48:04 PM 57.8333 -158.7333 292° West 470 541 41,000  Level Anchorage Center
Wed 07:49:04 PM 57.8667 -158.9833 284° West 480 552 41,000  Level Anchorage Center
Wed 07:50:04 PM 57.9000 -159.2167 285° West 480 552 41,000  Level Anchorage Center
Wed 07:51:04 PM 57.9500 -159.4667 291° West 480 552 41,000  Level Anchorage Center
Wed 07:52:04 PM 57.9833 -159.6833 286° West 470 541 41,000  Level Anchorage Center
Wed 07:53:05 PM 58.0167 -159.9167 285° West 470 541 41,000  Level Anchorage Center
Wed 07:54:05 PM 58.0333 -160.1667 277° West 460 529 41,000  Level Anchorage Center
Wed 07:55:04 PM 58.0333 -160.4000 270° West 460 529 41,000  Level Anchorage Center
Wed 07:56:05 PM 58.0500 -160.6833 276° West 470 541 41,000  Level Anchorage Center
Wed 07:57:05 PM 58.0500 -160.9000 270° West 470 541 41,000  Level Anchorage Center
Wed 07:58:05 PM 58.0667 -161.1500 277° West 470 541 41,000  Level Anchorage Center
Wed 07:59:05 PM 58.0667 -161.4000 270° West 460 529 41,000  Level Anchorage Center
Wed 08:00:05 PM 58.0833 -161.6500 277° West 460 529 41,000  Level Anchorage Center
Wed 08:01:05 PM 58.0833 -161.9000 270° West 470 541 41,000  Level Anchorage Center
Wed 08:02:06 PM 58.0833 -162.1500 270° West 470 541 41,000  Level Anchorage Center
Wed 08:04:05 PM 58.1000 -162.6000 274° West 470 541 41,000  Level Anchorage Center
Wed 08:05:06 PM 58.1000 -162.9000 270° West 470 541 41,000  Level Anchorage Center
Wed 08:06:06 PM 58.1167 -163.1500 277° West 460 529 41,000  Level Anchorage Center
Wed 08:07:06 PM 58.1167 -163.4167 270° West 480 552 41,000  Level Anchorage Center
Wed 08:09:06 PM 58.1167 -163.9167 270° West 460 529 41,000  Level Anchorage Center
Wed 08:10:06 PM 58.1167 -164.1667 270° West 470 541 41,000  Level Anchorage Center
Wed 08:11:06 PM 58.1167 -164.4167 270° West 490 564 41,000  Level Anchorage Center
Wed 08:12:06 PM 58.1167 -164.6667 270° West 480 552 41,000  Level Anchorage Center
Wed 08:13:06 PM 58.1167 -164.9333 270° West 470 541 41,000  Level Anchorage Center
Wed 08:14:17 PM 58.1333 -165.2333 276° West 480 552 41,000  Level Anchorage Center
Wed 08:15:18 PM 58.1167 -165.4833 263° West 470 541 41,000  Level Anchorage Center
Wed 08:16:18 PM 58.1167 -165.7333 270° West 480 552 41,000  Level Anchorage Center
Wed 08:17:18 PM 58.1167 -166.0000 270° West 480 552 41,000  Level Anchorage Center
Wed 08:18:18 PM 58.1167 -166.2500 270° West 470 541 41,000  Level Anchorage Center
Wed 08:19:18 PM 58.1167 -166.5000 270° West 470 541 41,000  Level Anchorage Center
Wed 08:20:18 PM 58.1167 -166.7167 270° West 470 541 41,000  Level Anchorage Center
Wed 08:21:18 PM 58.1000 -166.9500 262° West 460 529 41,000  Level Anchorage Center
Wed 08:22:18 PM 58.1000 -167.2000 270° West 470 541 41,000  Level Anchorage Center
Wed 08:23:18 PM 58.1000 -167.4500 270° West 470 541 41,000  Level Anchorage Center
Wed 08:24:19 PM 58.1000 -167.7167 270° West 480 552 41,000  Level Anchorage Center
Wed 08:25:19 PM 58.0833 -167.9667 263° West 480 552 41,000  Level Anchorage Center
Wed 08:26:19 PM 58.0833 -168.2167 270° West 470 541 41,000  Level Anchorage Center
Wed 08:27:19 PM 58.0833 -168.4667 270° West 480 552 41,000  Level Anchorage Center
Wed 08:28:19 PM 58.0667 -168.7333 263° West 480 552 41,000  Level Anchorage Center
Wed 08:29:19 PM 58.0667 -168.9833 270° West 480 552 41,000  Level Anchorage Center
Wed 08:30:19 PM 58.0500 -169.2333 263° West 480 552 41,000  Level Anchorage Center
Wed 08:31:19 PM 58.0500 -169.4833 270° West 480 552 41,000  Level Anchorage Center
Wed 08:32:19 PM 58.0333 -169.7333 263° West 470 541 41,000  Level Anchorage Center
Wed 08:33:19 PM 58.0167 -169.9833 263° West 480 552 41,000  Level Anchorage Center
Wed 08:34:19 PM 58.0000 -170.2500 263° West 480 552 41,000  Level Anchorage Center
Wed 08:35:19 PM 57.9667 -170.4833 255° West 480 552 41,000  Level Anchorage Center
Wed 08:36:19 PM 57.9500 -170.7333 263° West 470 541 41,000  Level Anchorage Center
Wed 08:37:19 PM 57.9167 -170.9833 256° West 470 541 41,000  Level Anchorage Center
Wed 08:38:20 PM 57.8833 -171.2167 255° West 470 541 41,000  Level Anchorage Center
Wed 08:39:20 PM 57.8667 -171.4667 263° West 480 552 41,000  Level Anchorage Center
Wed 08:40:20 PM 57.8333 -171.7167 256° West 470 541 41,000  Level Anchorage Center
Wed 08:41:20 PM 57.8000 -171.9667 256° West 480 552 41,000  Level Anchorage Center
Wed 08:42:20 PM 57.7667 -172.2000 255° West 480 552 41,000  Level Anchorage Center
Wed 08:43:20 PM 57.7333 -172.4500 256° West 480 552 41,000  Level Anchorage Center
Wed 08:44:20 PM 57.7000 -172.7000 256° West 480 552 41,000  Level Anchorage Center
Wed 08:45:20 PM 57.6667 -172.9500 256° West 490 564 41,000  Level Anchorage Center
Wed 08:46:20 PM 57.6333 -173.1833 255° West 470 541 41,000  Level Anchorage Center
Wed 08:47:20 PM 57.6000 -173.4333 256° West 480 552 41,000  Level Anchorage Center
Wed 08:48:20 PM 57.5667 -173.6667 255° West 480 552 41,000  Level Anchorage Center
Wed 08:49:20 PM 57.5333 -173.9167 256° West 480 552 41,000  Level Anchorage Center
Wed 08:50:20 PM 57.5000 -174.1667 256° West 490 564 41,000  Level Anchorage Center
Wed 08:51:20 PM 57.4667 -174.4000 255° West 480 552 41,000  Level Anchorage Center
Wed 08:52:20 PM 57.4333 -174.6500 256° West 480 552 41,000  Level Anchorage Center
Wed 08:53:21 PM 57.4000 -174.8833 255° West 480 552 41,000  Level Anchorage Center
Wed 08:54:20 PM 57.3667 -175.1333 256° West 480 552 41,000  Level Anchorage Center
Wed 08:55:21 PM 57.3333 -175.3667 255° West 480 552 41,000  Level Anchorage Center
Wed 08:57:32 PM 57.2333 -175.8167 254° West 484 557 41,000  Level Anchorage Center
Wed 09:04:00 PM 56.9607 -177.4605 252° West 484 557 41,000  Level FlightAware Transoceanic
Wed 09:05:00 PM 56.9200 -177.6933 252° West 484 557 41,000  Level FlightAware Transoceanic
Wed 09:06:00 PM 56.8789 -177.9256 252° West 484 557 41,000  Level FlightAware Transoceanic
Wed 09:06:53 PM 56.8500 -178.1000 252° West 484 557 41,000  Level Anchorage Center
Wed 09:07:00 PM 56.8373 -178.1574 252° West 484 557 41,000  Level FlightAware Transoceanic
Wed 09:08:00 PM 56.7953 -178.3887 252° West 484 557 41,000  Level FlightAware Transoceanic
Wed 09:09:00 PM 56.7529 -178.6195 251° West 484 557 41,000  Level FlightAware Transoceanic
Wed 09:10:00 PM 56.7101 -178.8497 251° West 484 557 41,000  Level FlightAware Transoceanic
Wed 09:11:00 PM 56.6668 -179.0795 251° West 484 557 41,000  Level FlightAware Transoceanic
Wed 09:12:00 PM 56.6231 -179.3087 251° West 484 557 41,000  Level FlightAware Transoceanic
Wed 09:13:00 PM 56.5877 -179.5007 251° West 484 557 41,000  Level FlightAware Transoceanic
Wed 09:14:00 PM 56.5424 -179.7323 250° West 484 557 41,000  Level FlightAware Transoceanic
Wed 09:15:00 PM 56.4967 -179.9633 250° West 484 557 41,000  Level FlightAware Transoceanic
Wed 09:16:00 PM 56.4506 179.8063 250° West 484 557 41,000  Level FlightAware Transoceanic
Wed 09:16:27 PM 56.4333 179.7000 250° West 480 552 41,000  Level Anchorage Center
Wed 09:17:00 PM 56.4041 179.5765 250° West 484 557 41,000  Level FlightAware Transoceanic
Wed 09:18:00 PM 56.3572 179.3472 250° West 484 557 41,000  Level FlightAware Transoceanic
Wed 09:19:00 PM 56.3098 179.1184 249° West 484 557 41,000  Level FlightAware Transoceanic
Wed 09:20:00 PM 56.2620 178.8902 249° West 484 557 41,000  Level FlightAware Transoceanic
Wed 09:21:00 PM 56.2138 178.6627 249° West 484 557 41,000  Level FlightAware Transoceanic
Wed 09:22:00 PM 56.1605 178.4094 249° West 480 552 41,000  Level FlightAware Transoceanic
Wed 09:23:00 PM 56.1138 178.1961 248° West 480 552 41,000  Level FlightAware Transoceanic
Wed 09:24:00 PM 56.0667 177.9833 241° Southwest 480 552 41,000  Level FlightAware Transoceanic
Wed 09:24:11 PM 56.0667 177.9833 241° Southwest 484 557 41,000  Level Anchorage Center
Wed 09:25:00 PM 56.0017 177.7781 240° Southwest 480 552 41,000  Level FlightAware Transoceanic
Wed 09:25:56 PM 55.9500 177.5833 240° Southwest 486 559 41,000  Level Anchorage Center
Wed 09:26:00 PM 55.9365 177.5737 240° Southwest 480 552 41,000  Level FlightAware Transoceanic
Wed 09:27:00 PM 55.8708 177.3698 240° Southwest 480 552 41,000  Level FlightAware Transoceanic
Wed 09:27:33 PM 55.8500 177.2333 239° Southwest 500 575 41,000  Level Anchorage Center
Wed 09:28:00 PM 55.8049 177.1667 240° Southwest 480 552 41,000  Level FlightAware Transoceanic
Wed 09:28:33 PM 55.8000 177.0500 244° Southwest 490 564 41,000  Level Anchorage Center
Wed 09:29:00 PM 55.7386 176.9643 240° Southwest 480 552 41,000  Level FlightAware Transoceanic
Wed 09:29:34 PM 55.7167 176.8167 238° Southwest 490 564 41,000  Level Anchorage Center
Wed 09:30:00 PM 55.6720 176.7625 240° Southwest 484 557 41,000  Level FlightAware Transoceanic
Wed 09:30:33 PM 55.6500 176.6000 241° Southwest 480 552 41,000  Level Anchorage Center
Wed 09:31:00 PM 55.6051 176.5615 239° Southwest 484 557 41,000  Level FlightAware Transoceanic
Wed 09:31:34 PM 55.5833 176.4167 237° Southwest 480 552 41,000  Level Anchorage Center
Wed 09:32:00 PM 55.5312 176.3180 239° Southwest 486 559 41,000  Level FlightAware Transoceanic
Wed 09:32:33 PM 55.5167 176.2000 242° Southwest 480 552 41,000  Level Anchorage Center
Wed 09:33:34 PM 55.4500 176.0167 237° Southwest 490 564 41,000  Level Anchorage Center
Wed 09:34:34 PM 55.3833 175.8000 242° Southwest 480 552 41,000  Level Anchorage Center
Wed 09:35:34 PM 55.3167 175.6167 237° Southwest 480 552 41,000  Level Anchorage Center
Wed 09:36:34 PM 55.2500 175.4000 242° Southwest 480 552 41,000  Level Anchorage Center
Wed 09:37:34 PM 55.1667 175.1833 236° Southwest 480 552 41,000  Level Anchorage Center
Wed 09:38:34 PM 55.1000 175.0167 235° Southwest 480 552 41,000  Level Anchorage Center
Wed 09:39:34 PM 55.0333 174.8000 242° Southwest 480 552 41,000  Level Anchorage Center
Wed 09:40:34 PM 54.9667 174.6167 238° Southwest 480 552 41,000  Level Anchorage Center
Wed 09:41:34 PM 54.9000 174.4500 235° Southwest 480 552 41,000  Level Anchorage Center
Wed 09:43:00 PM 54.8016 174.1915 237° Southwest  Level FlightAware Approximate
Wed 09:45:14 PM 54.6167 173.7500 237° Southwest 472 543 41,000  Level Anchorage Center
Wed 09:50:00 PM 54.3134 172.9471 236° Southwest  Level FlightAware Approximate
Wed 09:50:59 PM 54.2000 172.6833 235° Southwest 473 544 41,000  Level Anchorage Center
Wed 09:51:00 PM 54.2000 172.6833 235° Southwest 472 543 41,000  Level FlightAware Transoceanic
Wed 09:52:00 PM 54.1220 172.4928 235° Southwest 472 543 41,000  Level FlightAware Transoceanic
Wed 09:53:00 PM 54.0438 172.3030 235° Southwest 472 543 41,000  Level FlightAware Transoceanic
Wed 09:54:00 PM 53.9652 172.1140 235° Southwest 472 543 41,000  Level FlightAware Transoceanic
Wed 09:54:43 PM 53.9167 171.9833 234° Southwest 471 542 41,000  Level Anchorage Center
Wed 09:55:00 PM 53.8864 171.9256 235° Southwest 472 543 41,000  Level FlightAware Transoceanic
Wed 09:56:00 PM 53.8072 171.7379 234° Southwest 472 543 41,000  Level FlightAware Transoceanic
Wed 09:57:00 PM 53.7278 171.5510 234° Southwest 473 544 41,000  Level FlightAware Transoceanic
Wed 09:58:00 PM 53.6480 171.3647 234° Southwest 473 544 41,000  Level FlightAware Transoceanic
Wed 09:59:00 PM 53.5680 171.1792 234° Southwest 473 544 41,000  Level FlightAware Transoceanic
Wed 10:00:00 PM 53.4877 170.9944 234° Southwest 473 544 41,000  Level FlightAware Transoceanic
Wed 10:01:00 PM 53.4212 170.8358 233° Southwest 471 542 41,000  Level FlightAware Transoceanic
Wed 10:02:00 PM 53.3375 170.6472 233° Southwest 471 542 41,000  Level FlightAware Transoceanic
Wed 10:03:00 PM 53.2536 170.4593 233° Southwest 471 542 41,000  Level FlightAware Transoceanic
Wed 10:04:00 PM 53.1693 170.2721 233° Southwest 471 542 41,000  Level FlightAware Transoceanic
Wed 10:04:20 PM 53.1667 170.2667 233° Southwest 470 541 41,000  Level Anchorage Center
Wed 10:05:00 PM 53.0848 170.0857 233° Southwest 471 542 41,000  Level FlightAware Transoceanic
Wed 10:06:00 PM 53.0000 169.9000 241° Southwest 471 542 41,000  Level FlightAware Transoceanic
Wed 10:06:41 PM 53.0000 169.9000 241° Southwest 452 520 41,000  Level Anchorage Center
Wed 10:07:00 PM 52.9428 169.7270 241° Southwest 471 542 41,000  Level FlightAware Transoceanic
Wed 10:08:00 PM 52.8853 169.5544 241° Southwest 471 542 41,000  Level FlightAware Transoceanic
Wed 10:09:00 PM 52.8275 169.3824 241° Southwest 471 542 41,000  Level FlightAware Transoceanic
Wed 10:10:00 PM 52.7695 169.2107 241° Southwest 470 541 41,000  Level FlightAware Transoceanic
Wed 10:11:00 PM 52.7113 169.0396 241° Southwest 470 541 41,000  Level FlightAware Transoceanic
Wed 10:12:00 PM 52.6528 168.8689 240° Southwest 470 541 41,000  Level FlightAware Transoceanic
Wed 10:13:00 PM 52.5776 168.6510 240° Southwest 452 520 41,000  Level FlightAware Transoceanic
Wed 10:13:57 PM 52.5500 168.5667 240° Southwest 448 516 41,000  Level Anchorage Center
Wed 10:14:00 PM 52.5162 168.4745 240° Southwest 452 520 41,000  Level FlightAware Transoceanic
Wed 10:15:00 PM 52.4545 168.2986 240° Southwest 452 520 41,000  Level FlightAware Transoceanic
Wed 10:16:00 PM 52.3926 168.1231 240° Southwest 452 520 41,000  Level FlightAware Transoceanic
Wed 10:17:00 PM 52.3304 167.9482 240° Southwest 452 520 41,000  Level FlightAware Transoceanic
Wed 10:18:00 PM 52.2680 167.7737 240° Southwest 452 520 41,000  Level FlightAware Transoceanic
Wed 10:19:00 PM 52.2053 167.5997 239° Southwest 452 520 41,000  Level FlightAware Transoceanic
Wed 10:20:00 PM 52.1647 167.4848 239° Southwest 448 516 41,000  Level FlightAware Transoceanic
Wed 10:21:00 PM 52.0995 167.3063 239° Southwest 448 516 41,000  Level FlightAware Transoceanic
Wed 10:22:00 PM 52.0341 167.1283 239° Southwest 448 516 41,000  Level FlightAware Transoceanic
Wed 10:23:00 PM 51.9684 166.9509 239° Southwest 448 516 41,000  Level FlightAware Transoceanic
Wed 10:23:46 PM 51.9500 166.9167 239° Southwest 427 491 41,000  Level Anchorage Center
Wed 10:24:00 PM 51.9024 166.7739 239° Southwest 448 516 41,000  Level FlightAware Transoceanic
Wed 10:25:00 PM 51.8362 166.5975 239° Southwest 448 516 41,000  Level FlightAware Transoceanic
Wed 10:26:00 PM 51.7697 166.4217 238° Southwest 448 516 41,000  Level FlightAware Transoceanic
Wed 10:27:00 PM 51.7030 166.2463 238° Southwest 448 516 41,000  Level FlightAware Transoceanic
Wed 10:28:00 PM 51.6359 166.0714 238° Southwest 448 516 41,000  Level FlightAware Transoceanic
Wed 10:29:00 PM 51.6073 166.0021 238° Southwest 427 491 41,000  Level FlightAware Transoceanic
Wed 10:30:00 PM 51.5495 165.8510 238° Southwest 427 491 41,000  Level FlightAware Transoceanic
Wed 10:31:00 PM 51.4915 165.7003 238° Southwest 427 491 41,000  Level FlightAware Transoceanic
Wed 10:32:00 PM 51.4333 165.5500 237° Southwest 427 491 41,000  Level FlightAware Transoceanic
Wed 10:32:17 PM 51.4333 165.5500 237° Southwest 429 494 41,000  Level Anchorage Center
Wed 10:33:00 PM 51.3650 165.3818 237° Southwest 427 491 41,000  Level FlightAware Transoceanic
Wed 10:33:20 PM 51.3667 165.3833 237° Southwest 432 497 41,000  Level Anchorage Center
Wed 10:34:00 PM 51.2964 165.2142 237° Southwest 427 491 41,000  Level FlightAware Transoceanic
Wed 10:35:00 PM 51.2276 165.0470 237° Southwest 427 491 41,000  Level FlightAware Transoceanic
Wed 10:36:00 PM 51.1586 164.8803 236° Southwest 427 491 41,000  Level FlightAware Transoceanic
Wed 10:37:00 PM 51.0893 164.7142 236° Southwest 427 491 41,000  Level FlightAware Transoceanic
Wed 10:38:00 PM 51.0197 164.5485 236° Southwest 429 494 41,000  Level FlightAware Transoceanic
Wed 10:39:00 PM 50.9500 164.3833 237° Southwest 432 497 41,000  Level FlightAware Transoceanic
Wed 10:39:24 PM 50.9500 164.3833 237° Southwest 439 505 41,000  Level Anchorage Center
Wed 10:40:00 PM 50.8855 164.2266 237° Southwest 432 497 41,000  Level FlightAware Transoceanic
Wed 10:41:00 PM 50.8207 164.0702 237° Southwest 432 497 41,000  Level FlightAware Transoceanic
Wed 10:42:00 PM 50.7557 163.9143 237° Southwest 432 497 41,000  Level FlightAware Transoceanic
Wed 10:42:50 PM 50.7167 163.8167 236° Southwest 439 505 41,000  Level Anchorage Center
Wed 10:43:00 PM 50.6906 163.7588 236° Southwest 432 497 41,000  Level FlightAware Transoceanic
Wed 10:44:00 PM 50.6252 163.6038 236° Southwest 432 497 41,000  Level FlightAware Transoceanic
Wed 10:45:00 PM 50.5409 163.4051 236° Southwest 439 505 41,000  Level FlightAware Transoceanic
Wed 10:46:00 PM 50.4719 163.2437 236° Southwest 439 505 41,000  Level FlightAware Transoceanic
Wed 10:47:00 PM 50.4027 163.0828 236° Southwest 439 505 41,000  Level FlightAware Transoceanic
Wed 10:48:00 PM 50.3332 162.9224 236° Southwest 439 505 41,000  Level FlightAware Transoceanic
Wed 10:49:00 PM 50.2890 162.8179 236° Southwest 439 505 41,000  Level FlightAware Transoceanic
Wed 10:50:00 PM 50.2169 162.6532 236° Southwest 439 505 41,000  Level FlightAware Transoceanic
Wed 10:51:00 PM 50.1446 162.4890 235° Southwest 439 505 41,000  Level FlightAware Transoceanic
Wed 10:52:00 PM 50.0720 162.3253 235° Southwest 439 505 41,000  Level FlightAware Transoceanic
Wed 10:52:30 PM 50.0667 162.3000 235° Southwest 421 484 41,000  Level Anchorage Center
Wed 10:53:00 PM 49.9992 162.1621 235° Southwest 439 505 41,000  Level FlightAware Transoceanic
Wed 10:54:00 PM 49.9262 161.9993 235° Southwest 439 505 41,000  Level FlightAware Transoceanic
Wed 10:55:00 PM 49.8529 161.8371 235° Southwest 439 505 41,000  Level FlightAware Transoceanic
Wed 10:56:00 PM 49.7795 161.6754 235° Southwest 439 505 41,000  Level FlightAware Transoceanic
Wed 10:57:00 PM 49.7058 161.5141 235° Southwest 439 505 41,000  Level FlightAware Transoceanic
Wed 10:58:00 PM 49.6793 161.4522 234° Southwest 421 484 41,000  Level FlightAware Transoceanic
Wed 10:59:00 PM 49.6142 161.3122 234° Southwest 421 484 41,000  Level FlightAware Transoceanic
Wed 11:00:00 PM 49.5488 161.1726 234° Southwest 421 484 41,000  Level FlightAware Transoceanic
Wed 11:01:00 PM 49.4833 161.0333 234° Southwest 421 484 41,000  Level FlightAware Transoceanic
Wed 11:01:12 PM 49.4833 161.0333 234° Southwest 417 480 41,000  Level Anchorage Center
Wed 11:02:00 PM 49.4148 160.8869 234° Southwest 421 484 41,000  Level FlightAware Transoceanic
Wed 11:02:07 PM 49.4333 160.9167 234° Southwest 418 481 41,000  Level Anchorage Center
Wed 11:03:00 PM 49.3461 160.7408 234° Southwest 421 484 41,000  Level FlightAware Transoceanic
Wed 11:04:00 PM 49.2773 160.5952 234° Southwest 421 484 41,000  Level FlightAware Transoceanic
Wed 11:05:00 PM 49.2082 160.4500 234° Southwest 421 484 41,000  Level FlightAware Transoceanic
Wed 11:06:00 PM 49.1390 160.3051 234° Southwest 421 484 41,000  Level FlightAware Transoceanic
Wed 11:07:00 PM 49.0696 160.1607 234° Southwest 417 480 41,000  Level FlightAware Transoceanic
Wed 11:08:00 PM 49.0000 160.0167 233° Southwest 418 481 41,000  Level FlightAware Transoceanic
Wed 11:09:00 PM 48.9269 159.8675 233° Southwest 418 481 41,000  Level FlightAware Transoceanic
Wed 11:10:00 PM 48.8535 159.7187 233° Southwest 418 481 41,000  Level FlightAware Transoceanic
Wed 11:11:00 PM 48.7800 159.5704 233° Southwest 418 481 41,000  Level FlightAware Transoceanic
Wed 11:12:00 PM 48.7063 159.4225 233° Southwest 418 481 41,000  Level FlightAware Transoceanic
Wed 11:13:00 PM 48.6324 159.2751 233° Southwest 418 481 41,000  Level FlightAware Transoceanic
Wed 11:14:00 PM 48.5583 159.1280 233° Southwest 418 481 41,000  Level FlightAware Transoceanic
Wed 11:15:00 PM 48.4841 158.9815 233° Southwest 418 481 41,000  Level FlightAware Transoceanic
Wed 11:16:00 PM 48.4096 158.8353 232° Southwest 418 481 41,000  Level FlightAware Transoceanic
Wed 11:17:00 PM 48.3350 158.6896 232° Southwest 418 481 41,000  Level FlightAware Transoceanic
Wed 11:18:00 PM 48.2602 158.5443 232° Southwest 418 481 41,000  Level FlightAware Transoceanic
Wed 11:19:00 PM 48.1852 158.3994 232° Southwest 418 481 41,000  Level FlightAware Transoceanic
Wed 11:20:00 PM 48.1100 158.2549 232° Southwest 418 481 41,000  Level FlightAware Transoceanic
Wed 11:21:00 PM 48.0346 158.1109 232° Southwest 418 481 41,000  Level FlightAware Transoceanic
Wed 11:22:00 PM 47.9590 157.9673 232° Southwest 418 481 41,000  Level FlightAware Transoceanic
Wed 11:23:00 PM 47.8833 157.8241 232° Southwest 418 481 41,000  Level FlightAware Transoceanic
Wed 11:24:00 PM 47.8074 157.6813 232° Southwest 418 481 41,000  Level FlightAware Transoceanic
Wed 11:25:00 PM 47.7313 157.5390 231° Southwest 418 481 41,000  Level FlightAware Transoceanic
Wed 11:26:00 PM 47.6551 157.3970 231° Southwest 418 481 41,000  Level FlightAware Transoceanic
Wed 11:27:00 PM 47.5787 157.2555 231° Southwest 418 481 41,000  Level FlightAware Transoceanic
Wed 11:28:00 PM 47.5021 157.1144 231° Southwest 418 481 41,000  Level FlightAware Transoceanic
Wed 11:29:00 PM 47.4253 156.9737 231° Southwest 418 481 41,000  Level FlightAware Transoceanic
Wed 11:30:00 PM 47.3483 156.8334 231° Southwest 418 481 41,000  Level FlightAware Transoceanic
Wed 11:31:00 PM 47.2712 156.6935 231° Southwest 418 481 41,000  Level FlightAware Transoceanic
Wed 11:32:00 PM 47.1939 156.5540 231° Southwest 418 481 41,000  Level FlightAware Transoceanic
Wed 11:33:00 PM 47.1165 156.4149 231° Southwest 418 481 41,000  Level FlightAware Transoceanic
Wed 11:34:00 PM 47.0388 156.2763 231° Southwest 418 481 41,000  Level FlightAware Transoceanic
Wed 11:35:00 PM 46.9611 156.1380 230° Southwest 418 481 41,000  Level FlightAware Transoceanic
Wed 11:36:00 PM 46.8831 156.0002 230° Southwest 418 481 41,000  Level FlightAware Transoceanic
Wed 11:37:00 PM 46.8050 155.8627 230° Southwest 418 481 41,000  Level FlightAware Transoceanic
Wed 11:38:00 PM 46.7267 155.7256 230° Southwest 418 481 41,000  Level FlightAware Transoceanic
Wed 11:39:00 PM 46.6483 155.5890 230° Southwest 418 481 41,000  Level FlightAware Transoceanic
Wed 11:40:00 PM 46.5696 155.4527 230° Southwest 418 481 41,000  Level FlightAware Transoceanic
Wed 11:41:00 PM 46.4909 155.3168 230° Southwest 418 481 41,000  Level FlightAware Transoceanic
Wed 11:42:00 PM 46.4119 155.1814 230° Southwest 418 481 41,000  Level FlightAware Transoceanic
Wed 11:43:00 PM 46.3328 155.0463 230° Southwest 418 481 41,000  Level FlightAware Transoceanic
Wed 11:44:00 PM 46.2536 154.9116 230° Southwest 418 481 41,000  Level FlightAware Transoceanic
Wed 11:45:00 PM 46.1742 154.7773 229° Southwest 418 481 41,000  Level FlightAware Transoceanic
Wed 11:46:00 PM 46.0946 154.6434 229° Southwest 418 481 41,000  Level FlightAware Transoceanic
Wed 11:47:00 PM 46.0149 154.5098 229° Southwest 418 481 41,000  Level FlightAware Transoceanic
Wed 11:48:00 PM 45.9350 154.3767 229° Southwest 418 481 41,000  Level FlightAware Transoceanic
Wed 11:49:00 PM 45.8550 154.2439 229° Southwest 418 481 41,000  Level FlightAware Transoceanic
Wed 11:50:00 PM 45.7748 154.1115 229° Southwest 418 481 41,000  Level FlightAware Transoceanic
Wed 11:51:00 PM 45.6945 153.9795 229° Southwest 418 481 41,000  Level FlightAware Transoceanic
Wed 11:52:00 PM 45.6140 153.8479 229° Southwest 418 481 41,000  Level FlightAware Transoceanic
Wed 11:53:00 PM 45.5210 153.7224 223° Southwest  Level FlightAware Approximate
Wed 11:54:00 PM 45.5164 153.7162 229° Southwest  Level FlightAware Approximate
Wed 11:55:00 PM 45.4323 153.5788 229° Southwest  Level FlightAware Approximate
Wed 11:56:00 PM 45.3479 153.4418 229° Southwest  Level FlightAware Approximate
Wed 11:57:00 PM 45.2635 153.3052 229° Southwest  Level FlightAware Approximate
Wed 11:58:00 PM 45.1788 153.1690 229° Southwest  Level FlightAware Approximate
Wed 11:59:00 PM 45.0941 153.0332 229° Southwest  Level FlightAware Approximate
Thu 12:00:00 AM 45.0091 152.8978 228° Southwest  Level FlightAware Approximate
Thu 12:01:00 AM 44.9230 152.7640 228° Southwest  Level FlightAware Approximate
Thu 12:02:00 AM 44.8367 152.6307 228° Southwest  Level FlightAware Approximate
Thu 12:03:00 AM 44.7503 152.4978 228° Southwest  Level FlightAware Approximate
Thu 12:04:00 AM 44.6637 152.3654 227° Southwest  Level FlightAware Approximate
Thu 12:05:00 AM 44.5769 152.2333 227° Southwest  Level FlightAware Approximate
Thu 12:06:00 AM 44.4900 152.1016 227° Southwest  Level FlightAware Approximate
Thu 12:07:00 AM 44.4029 151.9703 227° Southwest  Level FlightAware Approximate
Thu 12:08:00 AM 44.3157 151.8394 227° Southwest  Level FlightAware Approximate
Thu 12:09:00 AM 44.2283 151.7088 227° Southwest  Level FlightAware Approximate
Thu 12:10:00 AM 44.1408 151.5787 227° Southwest  Level FlightAware Approximate
Thu 12:11:00 AM 44.0531 151.4490 227° Southwest  Level FlightAware Approximate
Thu 12:12:00 AM 43.9653 151.3196 227° Southwest  Level FlightAware Approximate
Thu 12:13:00 AM 43.8773 151.1906 227° Southwest  Level FlightAware Approximate
Thu 12:14:00 AM 43.7892 151.0620 227° Southwest  Level FlightAware Approximate
Thu 12:15:00 AM 43.7010 150.9338 226° Southwest  Level FlightAware Approximate
Thu 12:16:00 AM 43.6126 150.8060 226° Southwest  Level FlightAware Approximate
Thu 12:17:00 AM 43.5271 150.6829 226° Southwest  Level FlightAware Approximate
Thu 12:18:00 AM 43.4415 150.5601 226° Southwest  Level FlightAware Approximate
Thu 12:19:00 AM 43.3557 150.4377 226° Southwest  Level FlightAware Approximate
Thu 12:20:00 AM 43.2698 150.3156 226° Southwest  Level FlightAware Approximate
Thu 12:21:00 AM 43.1838 150.1939 226° Southwest  Level FlightAware Approximate
Thu 12:22:00 AM 43.0976 150.0725 226° Southwest  Level FlightAware Approximate
Thu 12:23:00 AM 43.0113 149.9514 226° Southwest  Level FlightAware Approximate
Thu 12:24:00 AM 42.9249 149.8307 226° Southwest  Level FlightAware Approximate
Thu 12:25:00 AM 42.8384 149.7103 226° Southwest  Level FlightAware Approximate
Thu 12:26:00 AM 42.7517 149.5903 226° Southwest  Level FlightAware Approximate
Thu 12:27:00 AM 42.6649 149.4706 225° Southwest  Level FlightAware Approximate
Thu 12:28:00 AM 42.5780 149.3513 225° Southwest  Level FlightAware Approximate
Thu 12:28:00 AM 42.8800 149.6970 225° Southwest 41,000  Level FlightAware ADS-B
Thu 12:29:00 AM 42.4910 149.2322 225° Southwest  Level FlightAware Approximate
Thu 12:29:00 AM 42.7980 149.5830 226° Southwest 424 488 41,000  Level FlightAware ADS-B
Thu 12:29:35 AM 42.7490 149.5160 225° Southwest 421 484 41,000  Level FlightAware ADS-B
Thu 12:30:05 AM 42.7120 149.4640 226° Southwest 420 483 41,000  Level FlightAware ADS-B
Thu 12:30:51 AM 42.6540 149.3830 226° Southwest 420 483 41,000  Level FlightAware ADS-B
Thu 12:31:27 AM 42.6120 149.3250 225° Southwest 420 483 41,000  Level FlightAware ADS-B
Thu 12:32:00 AM 42.5470 149.2380 225° Southwest 423 487 41,000  Level FlightAware ADS-B
Thu 12:32:50 AM 42.4780 149.1440 225° Southwest 422 486 41,000  Level FlightAware ADS-B
Thu 12:33:35 AM 42.4280 149.0740 226° Southwest 422 486 41,000  Level FlightAware ADS-B
Thu 12:34:15 AM 42.3590 148.9820 225° Southwest 420 483 41,000  Level FlightAware ADS-B
Thu 12:34:50 AM 42.3110 148.9170 225° Southwest 420 483 41,000  Level FlightAware ADS-B
Thu 12:35:25 AM 42.2630 148.8520 225° Southwest 419 482 41,000  Level FlightAware ADS-B
Thu 12:36:00 AM 42.2160 148.7890 225° Southwest 419 482 41,000  Level FlightAware ADS-B
Thu 12:36:35 AM 42.1660 148.7220 225° Southwest 417 480 41,000  Level FlightAware ADS-B
Thu 12:37:10 AM 42.1210 148.6610 225° Southwest 418 481 41,000  Level FlightAware ADS-B
Thu 12:37:45 AM 42.0710 148.5940 225° Southwest 417 480 41,000  Level FlightAware ADS-B
Thu 12:38:20 AM 42.0200 148.5260 225° Southwest 415 478 41,000  Level FlightAware ADS-B
Thu 12:38:55 AM 41.9710 148.4610 225° Southwest 413 475 41,000  Level FlightAware ADS-B
Thu 12:39:40 AM 41.9200 148.3930 225° Southwest 412 474 41,000  Level FlightAware ADS-B
Thu 12:40:28 AM 41.8520 148.3020 225° Southwest 412 474 41,000  Level FlightAware ADS-B
Thu 12:41:04 AM 41.8100 148.2470 224° Southwest 412 474 41,000  Level FlightAware ADS-B
Thu 12:41:35 AM 41.7560 148.1760 224° Southwest 413 475 41,000  Level FlightAware ADS-B
Thu 12:42:11 AM 41.7040 148.1090 224° Southwest 413 475 41,000  Level FlightAware ADS-B
Thu 12:42:45 AM 41.6570 148.0490 224° Southwest 412 474 41,000  Level FlightAware ADS-B
Thu 12:43:20 AM 41.6070 147.9840 224° Southwest 411 473 41,000  Level FlightAware ADS-B
Thu 12:43:55 AM 41.5580 147.9210 224° Southwest 412 474 41,000  Level FlightAware ADS-B
Thu 12:44:52 AM 41.4880 147.8310 224° Southwest 412 474 41,000  Level FlightAware ADS-B
Thu 12:45:25 AM 41.4360 147.7660 223° Southwest 409 471 41,000  Level FlightAware ADS-B
Thu 12:46:00 AM 41.3860 147.7010 224° Southwest 409 471 41,000  Level FlightAware ADS-B
Thu 12:46:35 AM 41.3390 147.6420 223° Southwest 408 470 41,000  Level FlightAware ADS-B
Thu 12:47:10 AM 41.2870 147.5760 224° Southwest 408 470 41,000  Level FlightAware ADS-B
Thu 12:47:45 AM 41.2380 147.5140 224° Southwest 410 472 41,000  Level FlightAware ADS-B
Thu 12:48:20 AM 41.1890 147.4530 223° Southwest 411 473 41,000  Level FlightAware ADS-B
Thu 12:48:55 AM 41.1400 147.3900 224° Southwest 418 481 41,000  Level FlightAware ADS-B
Thu 12:49:25 AM 41.0980 147.3370 224° Southwest 419 482 41,000  Level FlightAware ADS-B
Thu 12:50:00 AM 41.0480 147.2750 223° Southwest 421 484 41,000  Level FlightAware ADS-B
Thu 12:50:35 AM 40.9990 147.2130 224° Southwest 423 487 41,000  Level FlightAware ADS-B
Thu 12:51:10 AM 40.9490 147.1500 224° Southwest 426 490 41,000  Level FlightAware ADS-B
Thu 12:51:46 AM 40.9000 147.0900 223° Southwest 421 484 41,000  Level FlightAware ADS-B
Thu 12:52:20 AM 40.8480 147.0250 223° Southwest 427 491 41,000  Level FlightAware ADS-B
Thu 12:52:55 AM 40.7980 146.9630 223° Southwest 427 491 41,000  Level FlightAware ADS-B
Thu 12:53:30 AM 40.7480 146.9010 223° Southwest 423 487 41,000  Level FlightAware ADS-B
Thu 12:54:05 AM 40.6980 146.8390 223° Southwest 424 488 41,000  Level FlightAware ADS-B
Thu 12:54:40 AM 40.6460 146.7760 223° Southwest 423 487 41,000  Level FlightAware ADS-B
Thu 12:55:20 AM 40.5880 146.7040 223° Southwest 420 483 41,000  Level FlightAware ADS-B
Thu 12:55:55 AM 40.5390 146.6440 223° Southwest 420 483 41,000  Level FlightAware ADS-B
Thu 12:56:30 AM 40.4880 146.5810 223° Southwest 424 488 41,000  Level FlightAware ADS-B
Thu 12:57:05 AM 40.4380 146.5200 223° Southwest 422 486 41,000  Level FlightAware ADS-B
Thu 12:57:40 AM 40.3900 146.4620 223° Southwest 422 486 41,000  Level FlightAware ADS-B
Thu 12:58:38 AM 40.3140 146.3680 223° Southwest 422 486 41,000  Level FlightAware ADS-B
Thu 12:59:15 AM 40.2530 146.2950 222° Southwest 422 486 41,000  Level FlightAware ADS-B
Thu 12:59:55 AM 40.1970 146.2270 223° Southwest 423 487 41,000  Level FlightAware ADS-B
Thu 01:00:25 AM 40.1520 146.1730 223° Southwest 418 481 41,000  Level FlightAware ADS-B
Thu 01:01:05 AM 40.1040 146.1140 223° Southwest 418 481 41,000  Level FlightAware ADS-B
Thu 01:01:41 AM 40.0610 146.0610 223° Southwest 418 481 41,000  Level FlightAware ADS-B
Thu 01:02:17 AM 40.0170 146.0080 223° Southwest 418 481 41,000  Level FlightAware ADS-B
Thu 01:02:55 AM 39.9490 145.9280 222° Southwest 418 481 41,000  Level FlightAware ADS-B
Thu 01:03:30 AM 39.8900 145.8580 222° Southwest 418 481 41,000  Level FlightAware ADS-B
Thu 01:04:07 AM 39.8450 145.8040 223° Southwest 418 481 41,000  Level FlightAware ADS-B
Thu 01:04:45 AM 39.7810 145.7280 222° Southwest 419 482 41,000  Level FlightAware ADS-B
Thu 01:05:21 AM 39.7380 145.6760 223° Southwest 419 482 41,000  Level FlightAware ADS-B
Thu 01:05:57 AM 39.6940 145.6240 222° Southwest 419 482 41,000  Level FlightAware ADS-B
Thu 01:06:34 AM 39.6500 145.5700 223° Southwest 419 482 41,000  Level FlightAware ADS-B
Thu 01:07:10 AM 39.6060 145.5170 223° Southwest 419 482 41,000  Level FlightAware ADS-B
Thu 01:07:46 AM 39.5630 145.4650 223° Southwest 419 482 41,000  Level FlightAware ADS-B
Thu 01:08:22 AM 39.5200 145.4120 224° Southwest 419 482 41,000  Level FlightAware ADS-B
Thu 01:08:58 AM 39.4760 145.3600 222° Southwest 419 482 41,000  Level FlightAware ADS-B
Thu 01:09:34 AM 39.3520 145.2230 221° Southwest 431 496 41,000  Level FlightAware ADS-B
Thu 01:10:10 AM 39.3060 145.1690 222° Southwest 432 497 41,000  Level FlightAware ADS-B
Thu 01:10:50 AM 39.2550 145.1100 222° Southwest 432 497 41,000  Level FlightAware ADS-B
Thu 01:11:30 AM 39.1800 145.0240 222° Southwest 431 496 41,000  Level FlightAware ADS-B
Thu 01:12:05 AM 39.1300 144.9650 222° Southwest 432 497 41,000  Level FlightAware ADS-B
Thu 01:12:43 AM 39.0780 144.9060 221° Southwest 432 497 41,000  Level FlightAware ADS-B
Thu 01:13:19 AM 39.0310 144.8540 221° Southwest 432 497 41,000  Level FlightAware ADS-B
Thu 01:13:37 AM 38.9820 144.8360 196° South 525 604 41,000  Level FlightAware ADS-B
Thu 01:13:57 AM 38.9440 144.8020 215° Southwest 441 507 41,000  Level FlightAware ADS-B
Thu 01:14:32 AM 38.8820 144.7470 215° Southwest 442 509 41,000  Level FlightAware ADS-B
Thu 01:15:10 AM 38.8220 144.6930 215° Southwest 435 501 41,000  Level FlightAware ADS-B
Thu 01:15:50 AM 38.7530 144.6310 215° Southwest 435 501 41,000  Level FlightAware ADS-B
Thu 01:16:27 AM 38.6900 144.5750 215° Southwest 442 509 41,000  Level FlightAware ADS-B
Thu 01:17:15 AM 38.6110 144.5050 215° Southwest 434 499 41,000  Level FlightAware ADS-B
Thu 01:17:50 AM 38.5520 144.4520 215° Southwest 435 501 41,000  Level FlightAware ADS-B
Thu 01:18:30 AM 38.4860 144.3940 215° Southwest 436 502 41,000  Level FlightAware ADS-B
Thu 01:19:15 AM 38.4100 144.3260 215° Southwest 434 499 41,000  Level FlightAware ADS-B
Thu 01:19:45 AM 38.3590 144.2810 215° Southwest 434 499 41,000  Level FlightAware ADS-B
Thu 01:20:15 AM 38.3100 144.2380 215° Southwest 434 499 41,000  Level FlightAware ADS-B
Thu 01:20:50 AM 38.2500 144.1860 214° Southwest 436 502 41,000  Level FlightAware ADS-B
Thu 01:21:25 AM 38.1910 144.1330 215° Southwest 435 501 41,000  Level FlightAware ADS-B
Thu 01:21:59 AM 38.1320 144.0820 214° Southwest 435 501 41,000  Level FlightAware ADS-B
Thu 01:22:35 AM 38.0730 144.0300 215° Southwest 436 502 41,000  Level FlightAware ADS-B
Thu 01:23:10 AM 38.0140 143.9790 214° Southwest 437 503 41,000  Level FlightAware ADS-B
Thu 01:23:45 AM 37.9550 143.9270 215° Southwest 445 512 41,000  Level FlightAware ADS-B
Thu 01:24:20 AM 37.8950 143.8750 214° Southwest 446 513 41,000  Level FlightAware ADS-B
Thu 01:24:55 AM 37.8420 143.8290 214° Southwest 448 516 41,000  Level FlightAware ADS-B
Thu 01:25:30 AM 37.7840 143.7790 214° Southwest 446 513 41,000  Level FlightAware ADS-B
Thu 01:26:12 AM 37.7100 143.7150 214° Southwest 446 513 41,000  Level FlightAware ADS-B
Thu 01:26:50 AM 37.6390 143.6540 214° Southwest 449 517 41,000  Level FlightAware ADS-B
Thu 01:27:20 AM 37.5910 143.6120 215° Southwest 448 516 41,000  Level FlightAware ADS-B
Thu 01:28:00 AM 37.5190 143.5510 214° Southwest 448 516 41,000  Level FlightAware ADS-B
Thu 01:28:35 AM 37.4600 143.5010 214° Southwest 447 514 41,000  Level FlightAware ADS-B
Thu 01:29:05 AM 37.4090 143.4560 215° Southwest 446 513 41,000  Level FlightAware ADS-B
Thu 01:29:45 AM 37.3410 143.3990 214° Southwest 446 513 41,000  Level FlightAware ADS-B
Thu 01:30:20 AM 37.2820 143.3480 215° Southwest 446 513 41,000  Level FlightAware ADS-B
Thu 01:30:50 AM 37.2290 143.3040 213° Southwest 447 514 41,000  Level FlightAware ADS-B
Thu 01:31:25 AM 37.1700 143.2530 215° Southwest 447 514 41,000  Level FlightAware ADS-B
Thu 01:32:05 AM 37.1030 143.1960 214° Southwest 447 514 41,000  Level FlightAware ADS-B
Thu 01:32:40 AM 37.0420 143.1450 214° Southwest 447 514 41,000 -92 Level FlightAware ADS-B
Thu 01:33:10 AM 36.9890 143.1000 214° Southwest 446 513 40,900  Descending FlightAware ADS-B
Thu 01:33:45 AM 36.9310 143.0510 214° Southwest 433 498 41,000 80 Climbing FlightAware ADS-B
Thu 01:34:25 AM 36.8630 142.9940 214° Southwest 442 509 41,000  Level FlightAware ADS-B
Thu 01:35:02 AM 36.8110 142.9500 214° Southwest 444 511 41,000  Level FlightAware ADS-B
Thu 01:35:40 AM 36.7340 142.8860 214° Southwest 448 516 41,000 -658 Level FlightAware ADS-B
Thu 01:36:15 AM 36.6740 142.8360 214° Southwest 449 517 40,200 -1,714 Descending FlightAware ADS-B
Thu 01:36:50 AM 36.6130 142.7850 214° Southwest 445 512 39,000 -2,000 Descending FlightAware ADS-B
Thu 01:37:24 AM 36.5530 142.7350 214° Southwest 449 517 37,900 -2,057 Descending FlightAware ADS-B
Thu 01:38:00 AM 36.4910 142.6830 214° Southwest 449 517 36,600 -2,282 Descending FlightAware ADS-B
Thu 01:38:35 AM 36.4290 142.6320 214° Southwest 458 527 35,200 -2,657 Descending FlightAware ADS-B
Thu 01:39:10 AM 36.3670 142.5810 214° Southwest 460 529 33,500 -2,743 Descending FlightAware ADS-B
Thu 01:39:45 AM 36.3050 142.5300 214° Southwest 451 519 32,000 -2,314 Descending FlightAware ADS-B
Thu 01:40:20 AM 36.2450 142.4800 214° Southwest 449 517 30,800 -1,886 Descending FlightAware ADS-B
Thu 01:40:55 AM 36.1850 142.4310 213° Southwest 439 505 29,800 -1,543 Descending FlightAware ADS-B
Thu 01:41:30 AM 36.1260 142.3820 214° Southwest 424 488 29,000 -1,147 Descending FlightAware ADS-B
Thu 01:42:03 AM 36.0730 142.3510 205° Southwest 423 487 28,500 -1,629 Descending FlightAware ADS-B
Thu 01:42:40 AM 36.0060 142.3200 201° Southwest 394 453 27,100 -2,583 Descending FlightAware ADS-B
Thu 01:43:15 AM 35.9500 142.2950 200° South 360 414 25,400 -3,385 Descending FlightAware ADS-B
Thu 01:43:58 AM 35.8800 142.2660 199° South 372 428 22,700 -2,883 Descending FlightAware ADS-B
Thu 01:44:32 AM 35.8320 142.2370 206° Southwest 358 412 21,700 -1,333 Descending FlightAware ADS-B
Thu 01:45:10 AM 35.7840 142.1810 223° Southwest 357 411 21,100 -1,548 Descending FlightAware ADS-B
Thu 01:45:34 AM 35.7600 142.1520 224° Southwest 341 392 20,100 -2,182 Descending FlightAware ADS-B
Thu 01:46:05 AM 35.7230 142.1070 225° Southwest 348 400 19,100 -1,775 Descending FlightAware ADS-B
Thu 01:46:45 AM 35.7010 142.0340 250° West 352 405 18,000 -1,781 Descending FlightAware ADS-B
Thu 01:47:09 AM 35.7060 141.9900 278° West 373 429 17,200 -1,700 Descending FlightAware ADS-B
Thu 01:47:45 AM 35.7180 141.9020 280° West 377 434 16,300 -1,385 Descending FlightAware ADS-B
Thu 01:48:27 AM 35.7300 141.8130 279° West 372 428 15,400 -1,125 Descending FlightAware ADS-B
Thu 01:49:05 AM 35.7390 141.7410 279° West 364 419 14,800 -1,130 Descending FlightAware ADS-B
Thu 01:49:36 AM 35.7470 141.6780 279° West 361 415 14,100 -1,324 Descending FlightAware ADS-B
Thu 01:50:13 AM 35.7580 141.5980 280° West 359 413 13,300 -1,263 Descending FlightAware ADS-B
Thu 01:50:52 AM 35.7670 141.5220 278° West 356 410 12,500 -1,268 Descending FlightAware ADS-B
Thu 01:51:24 AM 35.7790 141.4560 283° West 359 413 11,800 -1,135 Descending FlightAware ADS-B
Thu 01:52:06 AM 35.8080 141.3880 298° West 355 409 11,100 -1,091 Descending FlightAware ADS-B
Thu 01:52:41 AM 35.8370 141.3220 298° West 357 411 10,400 -701 Descending FlightAware ADS-B
Thu 01:53:23 AM 35.8700 141.2470 299° West 312 359 10,200 -390 Descending FlightAware ADS-B
Thu 01:53:58 AM 35.8940 141.1920 298° West 290 334 9,900 -436 Descending FlightAware ADS-B
Thu 01:54:18 AM 35.9070 141.1640 300° West 287 330 9,800 -409 Descending FlightAware ADS-B
Thu 01:54:42 AM 35.9240 141.1280 300° West 281 323 9,600 -533 Descending FlightAware ADS-B
Thu 01:55:03 AM 35.9370 141.1000 300° West 279 321 9,400 -585 Descending FlightAware ADS-B
Thu 01:55:23 AM 35.9480 141.0730 297° West 278 320 9,200 -450 Descending FlightAware ADS-B
Thu 01:55:43 AM 35.9620 141.0420 299° West 281 323 9,100 -150 Descending FlightAware ADS-B
Thu 01:56:03 AM 35.9700 141.0190 293° West 274 315 9,100  Level FlightAware ADS-B
Thu 01:56:28 AM 35.9760 140.9760 280° West 271 312 9,100  Level FlightAware ADS-B
Thu 01:56:43 AM 35.9780 140.9570 277° West 264 304 9,100  Level FlightAware ADS-B
Thu 01:57:07 AM 35.9830 140.9150 278° West 272 313 9,100  Level FlightAware ADS-B
Thu 01:57:27 AM 35.9860 140.8860 277° West 265 305 9,100  Level FlightAware ADS-B
Thu 01:57:57 AM 35.9920 140.8420 280° West 262 302 9,100  Level FlightAware ADS-B
Thu 01:58:17 AM 35.9970 140.8100 281° West 264 304 9,100  Level FlightAware ADS-B
Thu 01:58:42 AM 36.0020 140.7730 279° West 267 307 9,100  Level FlightAware ADS-B
Thu 01:59:02 AM 36.0060 140.7440 280° West 267 307 9,100 -146 Level FlightAware ADS-B
Thu 01:59:23 AM 36.0100 140.7100 278° West 268 308 9,000 -462 Descending FlightAware ADS-B
Thu 01:59:41 AM 36.0130 140.6830 278° West 267 307 8,800 -750 Descending FlightAware ADS-B
Thu 02:00:03 AM 36.0180 140.6490 280° West 260 299 8,500 -783 Descending FlightAware ADS-B
Thu 02:00:27 AM 36.0220 140.6160 279° West 246 283 8,200 -545 Descending FlightAware ADS-B
Thu 02:00:47 AM 36.0260 140.5880 280° West 240 276 8,100 -300 Descending FlightAware ADS-B
Thu 02:01:07 AM 36.0300 140.5610 280° West 243 280 8,000 -150 Descending FlightAware ADS-B
Thu 02:01:27 AM 36.0340 140.5340 280° West 239 275 8,000 -600 Level FlightAware ADS-B
Thu 02:01:47 AM 36.0380 140.5070 280° West 237 273 7,600 -1,091 Descending FlightAware ADS-B
Thu 02:02:11 AM 36.0420 140.4760 279° West 238 274 7,200 -955 Descending FlightAware ADS-B
Thu 02:02:31 AM 36.0460 140.4480 280° West 235 270 6,900 -1,000 Descending FlightAware ADS-B
Thu 02:02:47 AM 36.0480 140.4270 277° West 230 265 6,600 -900 Descending FlightAware ADS-B
Thu 02:03:11 AM 36.0470 140.3960 268° West 214 246 6,300 -585 Descending FlightAware ADS-B
Thu 02:03:28 AM 36.0460 140.3780 266° West 203 234 6,200 -500 Descending FlightAware ADS-B
Thu 02:03:47 AM 36.0450 140.3560 267° West 200 230 6,000 -308 Descending FlightAware ADS-B
Thu 02:04:07 AM 36.0440 140.3320 267° West 201 231 6,000 -409 Level FlightAware ADS-B
Thu 02:04:31 AM 36.0440 140.3050 270° West 198 228 5,700 -804 Descending FlightAware ADS-B
Thu 02:05:59 AM 36.0170 140.2260 247° West 167 192 4,500 -813 Descending FlightAware ADS-B
Thu 02:06:07 AM 36.0110 140.2220 208° Southwest 164 189 4,400 -750 Descending FlightAware ADS-B
Thu 02:06:15 AM 36.0060 140.2210 189° South 163 188 4,300 -1,000 Descending FlightAware ADS-B
Thu 02:06:43 AM 35.9840 140.2240 174° South 168 193 3,800 -1,000 Descending FlightAware ADS-B
Thu 02:07:03 AM 35.9690 140.2290 165° South 168 193 3,500 -857 Descending FlightAware ADS-B
Thu 02:07:11 AM 35.9640 140.2310 162° South 171 197 3,400 -621 Descending FlightAware ADS-B
Thu 02:07:32 AM 35.9490 140.2420 149° Southeast 170 196 3,200 -750 Descending FlightAware ADS-B
Thu 02:07:51 AM 35.9360 140.2510 151° Southeast 170 196 2,900 -558 Descending FlightAware ADS-B
Thu 02:08:15 AM 35.9210 140.2620 149° Southeast 165 190 2,800  Descending FlightAware ADS-B
Thu 02:08:35 AM 35.9070 140.2720 150° Southeast 168 193 2,900  Climbing FlightAware ADS-B
Thu 02:08:55 AM 35.8930 140.2820 150° Southeast 170 196 2,800 -585 Descending FlightAware ADS-B
Thu 02:09:16 AM 35.8800 140.2920 148° Southeast 164 189 2,500 -955 Descending FlightAware ADS-B
Thu 02:09:39 AM 35.8650 140.3030 149° Southeast 149 171 2,100 -837 Descending FlightAware ADS-B
Thu 02:09:59 AM 35.8530 140.3110 152° Southeast 143 165 1,900 -600 Descending FlightAware ADS-B
Thu 02:10:19 AM 35.8410 140.3200 149° Southeast 147 169 1,700 -750 Descending FlightAware ADS-B
Thu 02:10:39 AM 35.8300 140.3280 149° Southeast 148 170 1,400 -900 Descending FlightAware ADS-B
Thu 02:10:59 AM 35.8170 140.3370 151° Southeast 146 168 1,100 -698 Descending FlightAware ADS-B
Thu 02:11:22 AM 35.8050 140.3460 149° Southeast 144 166 900 -652 Descending FlightAware ADS-B
Thu 02:11:45 AM 35.7910 140.3560 150° Southeast 141 162 600 -682 Descending FlightAware ADS-B
Thu 02:12:06 AM 35.7810 140.3640 147° Southeast 137 158 400 -360 Descending FlightAware ADS-B
Thu 02:12:35 AM 35.7670 140.3740 150° Southeast 135 155 300 -207 Descending FlightAware ADS-B
Thu 02:15:00 AM 35.7647 140.3864 253° West  Level Estimated

Login

Don't have an account? Register now (free) for customized features, flight alerts, and more!